<?xml version="1.0" encoding="UTF-8" standalone="no" ?>
<gpx xmlns="http://www.topografix.com/GPX/1/1" xmlns:xsi="http://www.w3.org/2001/XMLSchema-instance" xsi:schemaLocation="http://www.topografix.com/GPX/1/1 http://www.topografix.com/GPX/1/1/gpx.xsd" version="1.1" creator="VisuGPX - https://www.visugpx.com">
  <metadata>
    <name>CG2025 - gravel</name>
  </metadata>
  <trk>
    <name><![CDATA[cg25_gravel_75k_v3-22361455]]></name>
    <trkseg>
      <trkpt lat="43.55744" lon="1.17666">
        <ele>205.8</ele>
        <time>2025-09-03T15:33:56Z</time>
      </trkpt>
      <trkpt lat="43.55751" lon="1.17632">
        <ele>205.1</ele>
        <time>2025-09-03T15:34:02Z</time>
      </trkpt>
      <trkpt lat="43.55771" lon="1.1757">
        <ele>205.6</ele>
        <time>2025-09-03T15:34:13Z</time>
      </trkpt>
      <trkpt lat="43.55793" lon="1.17465">
        <ele>206.3</ele>
        <time>2025-09-03T15:34:32Z</time>
      </trkpt>
      <trkpt lat="43.55848" lon="1.17229">
        <ele>207</ele>
        <time>2025-09-03T15:35:14Z</time>
      </trkpt>
      <trkpt lat="43.55879" lon="1.17127">
        <ele>207.6</ele>
        <time>2025-09-03T15:35:33Z</time>
      </trkpt>
      <trkpt lat="43.55912" lon="1.16983">
        <ele>208.3</ele>
        <time>2025-09-03T15:35:58Z</time>
      </trkpt>
      <trkpt lat="43.5591" lon="1.16951">
        <ele>209.8</ele>
        <time>2025-09-03T15:36:04Z</time>
      </trkpt>
      <trkpt lat="43.55865" lon="1.16781">
        <ele>211.9</ele>
        <time>2025-09-03T15:36:34Z</time>
      </trkpt>
      <trkpt lat="43.55839" lon="1.16756">
        <ele>212.6</ele>
        <time>2025-09-03T15:36:42Z</time>
      </trkpt>
      <trkpt lat="43.55794" lon="1.16689">
        <ele>213.5</ele>
        <time>2025-09-03T15:36:57Z</time>
      </trkpt>
      <trkpt lat="43.55682" lon="1.16568">
        <ele>217.6</ele>
        <time>2025-09-03T15:37:30Z</time>
      </trkpt>
      <trkpt lat="43.55602" lon="1.16566">
        <ele>216.9</ele>
        <time>2025-09-03T15:37:49Z</time>
      </trkpt>
      <trkpt lat="43.55531" lon="1.16546">
        <ele>215.4</ele>
        <time>2025-09-03T15:38:06Z</time>
      </trkpt>
      <trkpt lat="43.55465" lon="1.16531">
        <ele>215</ele>
        <time>2025-09-03T15:38:22Z</time>
      </trkpt>
      <trkpt lat="43.55416" lon="1.16515">
        <ele>215</ele>
        <time>2025-09-03T15:38:33Z</time>
      </trkpt>
      <trkpt lat="43.5541" lon="1.1653">
        <ele>214.7</ele>
        <time>2025-09-03T15:38:36Z</time>
      </trkpt>
      <trkpt lat="43.55374" lon="1.16701">
        <ele>211.5</ele>
        <time>2025-09-03T15:39:06Z</time>
      </trkpt>
      <trkpt lat="43.5535" lon="1.16745">
        <ele>211</ele>
        <time>2025-09-03T15:39:16Z</time>
      </trkpt>
      <trkpt lat="43.55305" lon="1.17093">
        <ele>208</ele>
        <time>2025-09-03T15:40:16Z</time>
      </trkpt>
      <trkpt lat="43.55177" lon="1.1708">
        <ele>206.9</ele>
        <time>2025-09-03T15:40:45Z</time>
      </trkpt>
      <trkpt lat="43.55059" lon="1.17071">
        <ele>208</ele>
        <time>2025-09-03T15:41:13Z</time>
      </trkpt>
      <trkpt lat="43.55074" lon="1.16892">
        <ele>209</ele>
        <time>2025-09-03T15:41:44Z</time>
      </trkpt>
      <trkpt lat="43.55117" lon="1.16701">
        <ele>210</ele>
        <time>2025-09-03T15:42:17Z</time>
      </trkpt>
      <trkpt lat="43.55125" lon="1.16656">
        <ele>210</ele>
        <time>2025-09-03T15:42:25Z</time>
      </trkpt>
      <trkpt lat="43.55129" lon="1.16489">
        <ele>211.8</ele>
        <time>2025-09-03T15:42:54Z</time>
      </trkpt>
      <trkpt lat="43.55173" lon="1.15941">
        <ele>219.2</ele>
        <time>2025-09-03T15:44:27Z</time>
      </trkpt>
      <trkpt lat="43.55185" lon="1.15756">
        <ele>219.3</ele>
        <time>2025-09-03T15:44:58Z</time>
      </trkpt>
      <trkpt lat="43.55186" lon="1.15619">
        <ele>219.4</ele>
        <time>2025-09-03T15:45:22Z</time>
      </trkpt>
      <trkpt lat="43.55174" lon="1.15439">
        <ele>220.7</ele>
        <time>2025-09-03T15:45:52Z</time>
      </trkpt>
      <trkpt lat="43.55166" lon="1.15201">
        <ele>221</ele>
        <time>2025-09-03T15:46:32Z</time>
      </trkpt>
      <trkpt lat="43.55162" lon="1.15195">
        <ele>220.8</ele>
        <time>2025-09-03T15:46:34Z</time>
      </trkpt>
      <trkpt lat="43.55145" lon="1.15184">
        <ele>220.2</ele>
        <time>2025-09-03T15:46:38Z</time>
      </trkpt>
      <trkpt lat="43.55016" lon="1.15083">
        <ele>217</ele>
        <time>2025-09-03T15:47:13Z</time>
      </trkpt>
      <trkpt lat="43.54945" lon="1.15023">
        <ele>219</ele>
        <time>2025-09-03T15:47:32Z</time>
      </trkpt>
      <trkpt lat="43.54856" lon="1.14975">
        <ele>216.7</ele>
        <time>2025-09-03T15:47:55Z</time>
      </trkpt>
      <trkpt lat="43.54766" lon="1.1494">
        <ele>216.8</ele>
        <time>2025-09-03T15:48:16Z</time>
      </trkpt>
      <trkpt lat="43.54763" lon="1.14941">
        <ele>216.9</ele>
        <time>2025-09-03T15:48:17Z</time>
      </trkpt>
      <trkpt lat="43.5475" lon="1.14936">
        <ele>216.7</ele>
        <time>2025-09-03T15:48:20Z</time>
      </trkpt>
      <trkpt lat="43.54668" lon="1.14894">
        <ele>218.2</ele>
        <time>2025-09-03T15:48:41Z</time>
      </trkpt>
      <trkpt lat="43.54647" lon="1.14881">
        <ele>218.4</ele>
        <time>2025-09-03T15:48:46Z</time>
      </trkpt>
      <trkpt lat="43.54633" lon="1.14908">
        <ele>218</ele>
        <time>2025-09-03T15:48:52Z</time>
      </trkpt>
      <trkpt lat="43.54614" lon="1.14956">
        <ele>218</ele>
        <time>2025-09-03T15:49:01Z</time>
      </trkpt>
      <trkpt lat="43.546" lon="1.15003">
        <ele>217</ele>
        <time>2025-09-03T15:49:10Z</time>
      </trkpt>
      <trkpt lat="43.54587" lon="1.15076">
        <ele>217</ele>
        <time>2025-09-03T15:49:22Z</time>
      </trkpt>
      <trkpt lat="43.54575" lon="1.1511">
        <ele>218.3</ele>
        <time>2025-09-03T15:49:29Z</time>
      </trkpt>
      <trkpt lat="43.54591" lon="1.15387">
        <ele>223.8</ele>
        <time>2025-09-03T15:50:16Z</time>
      </trkpt>
      <trkpt lat="43.54579" lon="1.1539">
        <ele>224.6</ele>
        <time>2025-09-03T15:50:19Z</time>
      </trkpt>
      <trkpt lat="43.54466" lon="1.15341">
        <ele>233.6</ele>
        <time>2025-09-03T15:50:46Z</time>
      </trkpt>
      <trkpt lat="43.54342" lon="1.15275">
        <ele>245.9</ele>
        <time>2025-09-03T15:51:17Z</time>
      </trkpt>
      <trkpt lat="43.5432" lon="1.15269">
        <ele>246.3</ele>
        <time>2025-09-03T15:51:23Z</time>
      </trkpt>
      <trkpt lat="43.54252" lon="1.15287">
        <ele>247.2</ele>
        <time>2025-09-03T15:51:39Z</time>
      </trkpt>
      <trkpt lat="43.54164" lon="1.15301">
        <ele>252.4</ele>
        <time>2025-09-03T15:51:59Z</time>
      </trkpt>
      <trkpt lat="43.54031" lon="1.15278">
        <ele>260.8</ele>
        <time>2025-09-03T15:52:31Z</time>
      </trkpt>
      <trkpt lat="43.53891" lon="1.1524">
        <ele>260.5</ele>
        <time>2025-09-03T15:53:04Z</time>
      </trkpt>
      <trkpt lat="43.53774" lon="1.15231">
        <ele>260.2</ele>
        <time>2025-09-03T15:53:31Z</time>
      </trkpt>
      <trkpt lat="43.53655" lon="1.15127">
        <ele>262.8</ele>
        <time>2025-09-03T15:54:04Z</time>
      </trkpt>
      <trkpt lat="43.5358" lon="1.15081">
        <ele>268</ele>
        <time>2025-09-03T15:54:23Z</time>
      </trkpt>
      <trkpt lat="43.53558" lon="1.15057">
        <ele>268.9</ele>
        <time>2025-09-03T15:54:30Z</time>
      </trkpt>
      <trkpt lat="43.53532" lon="1.1502">
        <ele>271.1</ele>
        <time>2025-09-03T15:54:39Z</time>
      </trkpt>
      <trkpt lat="43.5352" lon="1.14987">
        <ele>272.3</ele>
        <time>2025-09-03T15:54:45Z</time>
      </trkpt>
      <trkpt lat="43.53494" lon="1.14866">
        <ele>276.5</ele>
        <time>2025-09-03T15:55:06Z</time>
      </trkpt>
      <trkpt lat="43.53492" lon="1.14676">
        <ele>283.6</ele>
        <time>2025-09-03T15:55:38Z</time>
      </trkpt>
      <trkpt lat="43.53507" lon="1.14342">
        <ele>294.8</ele>
        <time>2025-09-03T15:56:35Z</time>
      </trkpt>
      <trkpt lat="43.53504" lon="1.1431">
        <ele>295</ele>
        <time>2025-09-03T15:56:41Z</time>
      </trkpt>
      <trkpt lat="43.53468" lon="1.14189">
        <ele>294</ele>
        <time>2025-09-03T15:57:03Z</time>
      </trkpt>
      <trkpt lat="43.53464" lon="1.14078">
        <ele>291.8</ele>
        <time>2025-09-03T15:57:22Z</time>
      </trkpt>
      <trkpt lat="43.53456" lon="1.13986">
        <ele>288.2</ele>
        <time>2025-09-03T15:57:37Z</time>
      </trkpt>
      <trkpt lat="43.53433" lon="1.13846">
        <ele>283.9</ele>
        <time>2025-09-03T15:58:02Z</time>
      </trkpt>
      <trkpt lat="43.53426" lon="1.13766">
        <ele>284</ele>
        <time>2025-09-03T15:58:15Z</time>
      </trkpt>
      <trkpt lat="43.53411" lon="1.13646">
        <ele>285.4</ele>
        <time>2025-09-03T15:58:36Z</time>
      </trkpt>
      <trkpt lat="43.53409" lon="1.13529">
        <ele>286.4</ele>
        <time>2025-09-03T15:58:56Z</time>
      </trkpt>
      <trkpt lat="43.53416" lon="1.13448">
        <ele>286.9</ele>
        <time>2025-09-03T15:59:09Z</time>
      </trkpt>
      <trkpt lat="43.53419" lon="1.13347">
        <ele>288.1</ele>
        <time>2025-09-03T15:59:27Z</time>
      </trkpt>
      <trkpt lat="43.53418" lon="1.13304">
        <ele>289.1</ele>
        <time>2025-09-03T15:59:34Z</time>
      </trkpt>
      <trkpt lat="43.53383" lon="1.13075">
        <ele>294.3</ele>
        <time>2025-09-03T16:00:13Z</time>
      </trkpt>
      <trkpt lat="43.53371" lon="1.1302">
        <ele>292.4</ele>
        <time>2025-09-03T16:00:23Z</time>
      </trkpt>
      <trkpt lat="43.53369" lon="1.13002">
        <ele>292.3</ele>
        <time>2025-09-03T16:00:26Z</time>
      </trkpt>
      <trkpt lat="43.53372" lon="1.12955">
        <ele>291.8</ele>
        <time>2025-09-03T16:00:34Z</time>
      </trkpt>
      <trkpt lat="43.53315" lon="1.12622">
        <ele>300.6</ele>
        <time>2025-09-03T16:01:32Z</time>
      </trkpt>
      <trkpt lat="43.53294" lon="1.12417">
        <ele>301.4</ele>
        <time>2025-09-03T16:02:07Z</time>
      </trkpt>
      <trkpt lat="43.53288" lon="1.12327">
        <ele>300.6</ele>
        <time>2025-09-03T16:02:23Z</time>
      </trkpt>
      <trkpt lat="43.53285" lon="1.12209">
        <ele>299.3</ele>
        <time>2025-09-03T16:02:43Z</time>
      </trkpt>
      <trkpt lat="43.53278" lon="1.12102">
        <ele>299</ele>
        <time>2025-09-03T16:03:01Z</time>
      </trkpt>
      <trkpt lat="43.53268" lon="1.12025">
        <ele>298.3</ele>
        <time>2025-09-03T16:03:14Z</time>
      </trkpt>
      <trkpt lat="43.53229" lon="1.11838">
        <ele>298.5</ele>
        <time>2025-09-03T16:03:47Z</time>
      </trkpt>
      <trkpt lat="43.53214" lon="1.11795">
        <ele>298.5</ele>
        <time>2025-09-03T16:03:55Z</time>
      </trkpt>
      <trkpt lat="43.53086" lon="1.11603">
        <ele>300.9</ele>
        <time>2025-09-03T16:04:39Z</time>
      </trkpt>
      <trkpt lat="43.52974" lon="1.11323">
        <ele>304.6</ele>
        <time>2025-09-03T16:05:33Z</time>
      </trkpt>
      <trkpt lat="43.52942" lon="1.11255">
        <ele>305.8</ele>
        <time>2025-09-03T16:05:47Z</time>
      </trkpt>
      <trkpt lat="43.52847" lon="1.11">
        <ele>306</ele>
        <time>2025-09-03T16:06:36Z</time>
      </trkpt>
      <trkpt lat="43.52821" lon="1.10955">
        <ele>306.3</ele>
        <time>2025-09-03T16:06:45Z</time>
      </trkpt>
      <trkpt lat="43.52815" lon="1.10951">
        <ele>306.3</ele>
        <time>2025-09-03T16:06:47Z</time>
      </trkpt>
      <trkpt lat="43.52787" lon="1.10948">
        <ele>306</ele>
        <time>2025-09-03T16:06:53Z</time>
      </trkpt>
      <trkpt lat="43.52781" lon="1.10917">
        <ele>306.1</ele>
        <time>2025-09-03T16:06:59Z</time>
      </trkpt>
      <trkpt lat="43.52772" lon="1.10895">
        <ele>306</ele>
        <time>2025-09-03T16:07:03Z</time>
      </trkpt>
      <trkpt lat="43.5273" lon="1.10834">
        <ele>306</ele>
        <time>2025-09-03T16:07:17Z</time>
      </trkpt>
      <trkpt lat="43.5271" lon="1.10796">
        <ele>305.9</ele>
        <time>2025-09-03T16:07:25Z</time>
      </trkpt>
      <trkpt lat="43.52674" lon="1.10685">
        <ele>307.5</ele>
        <time>2025-09-03T16:07:46Z</time>
      </trkpt>
      <trkpt lat="43.52651" lon="1.10588">
        <ele>306.7</ele>
        <time>2025-09-03T16:08:03Z</time>
      </trkpt>
      <trkpt lat="43.52639" lon="1.10481">
        <ele>307</ele>
        <time>2025-09-03T16:08:22Z</time>
      </trkpt>
      <trkpt lat="43.52639" lon="1.1044">
        <ele>307</ele>
        <time>2025-09-03T16:08:28Z</time>
      </trkpt>
      <trkpt lat="43.52643" lon="1.10373">
        <ele>307.5</ele>
        <time>2025-09-03T16:08:40Z</time>
      </trkpt>
      <trkpt lat="43.52651" lon="1.10307">
        <ele>308.5</ele>
        <time>2025-09-03T16:08:51Z</time>
      </trkpt>
      <trkpt lat="43.52673" lon="1.10202">
        <ele>308.7</ele>
        <time>2025-09-03T16:09:10Z</time>
      </trkpt>
      <trkpt lat="43.52677" lon="1.10133">
        <ele>309.9</ele>
        <time>2025-09-03T16:09:21Z</time>
      </trkpt>
      <trkpt lat="43.52678" lon="1.10075">
        <ele>310.2</ele>
        <time>2025-09-03T16:09:31Z</time>
      </trkpt>
      <trkpt lat="43.5267" lon="1.09812">
        <ele>312.9</ele>
        <time>2025-09-03T16:10:16Z</time>
      </trkpt>
      <trkpt lat="43.5268" lon="1.09784">
        <ele>312.1</ele>
        <time>2025-09-03T16:10:21Z</time>
      </trkpt>
      <trkpt lat="43.527" lon="1.09662">
        <ele>308.5</ele>
        <time>2025-09-03T16:10:42Z</time>
      </trkpt>
      <trkpt lat="43.5278" lon="1.09317">
        <ele>295.8</ele>
        <time>2025-09-03T16:11:44Z</time>
      </trkpt>
      <trkpt lat="43.52801" lon="1.09256">
        <ele>293.5</ele>
        <time>2025-09-03T16:11:55Z</time>
      </trkpt>
      <trkpt lat="43.52831" lon="1.09183">
        <ele>293</ele>
        <time>2025-09-03T16:12:09Z</time>
      </trkpt>
      <trkpt lat="43.52852" lon="1.09118">
        <ele>295.8</ele>
        <time>2025-09-03T16:12:21Z</time>
      </trkpt>
      <trkpt lat="43.52885" lon="1.09049">
        <ele>299.5</ele>
        <time>2025-09-03T16:12:35Z</time>
      </trkpt>
      <trkpt lat="43.52905" lon="1.08971">
        <ele>301.7</ele>
        <time>2025-09-03T16:12:49Z</time>
      </trkpt>
      <trkpt lat="43.52971" lon="1.08783">
        <ele>309</ele>
        <time>2025-09-03T16:13:25Z</time>
      </trkpt>
      <trkpt lat="43.52977" lon="1.08759">
        <ele>309.6</ele>
        <time>2025-09-03T16:13:29Z</time>
      </trkpt>
      <trkpt lat="43.52952" lon="1.08759">
        <ele>308.9</ele>
        <time>2025-09-03T16:13:35Z</time>
      </trkpt>
      <trkpt lat="43.5283" lon="1.08748">
        <ele>307</ele>
        <time>2025-09-03T16:14:03Z</time>
      </trkpt>
      <trkpt lat="43.52657" lon="1.08742">
        <ele>303.5</ele>
        <time>2025-09-03T16:14:44Z</time>
      </trkpt>
      <trkpt lat="43.52569" lon="1.08755">
        <ele>305.9</ele>
        <time>2025-09-03T16:15:04Z</time>
      </trkpt>
      <trkpt lat="43.52453" lon="1.08764">
        <ele>310</ele>
        <time>2025-09-03T16:15:32Z</time>
      </trkpt>
      <trkpt lat="43.52452" lon="1.08741">
        <ele>308.7</ele>
        <time>2025-09-03T16:15:35Z</time>
      </trkpt>
      <trkpt lat="43.52454" lon="1.0872">
        <ele>307.6</ele>
        <time>2025-09-03T16:15:39Z</time>
      </trkpt>
      <trkpt lat="43.52479" lon="1.08514">
        <ele>293</ele>
        <time>2025-09-03T16:16:14Z</time>
      </trkpt>
      <trkpt lat="43.52492" lon="1.08358">
        <ele>284.5</ele>
        <time>2025-09-03T16:16:41Z</time>
      </trkpt>
      <trkpt lat="43.52499" lon="1.08325">
        <ele>283.5</ele>
        <time>2025-09-03T16:16:47Z</time>
      </trkpt>
      <trkpt lat="43.52513" lon="1.08283">
        <ele>279.1</ele>
        <time>2025-09-03T16:16:55Z</time>
      </trkpt>
      <trkpt lat="43.52587" lon="1.08128">
        <ele>272.9</ele>
        <time>2025-09-03T16:17:26Z</time>
      </trkpt>
      <trkpt lat="43.52658" lon="1.08034">
        <ele>265.8</ele>
        <time>2025-09-03T16:17:49Z</time>
      </trkpt>
      <trkpt lat="43.52674" lon="1.08009">
        <ele>265.1</ele>
        <time>2025-09-03T16:17:55Z</time>
      </trkpt>
      <trkpt lat="43.52689" lon="1.07972">
        <ele>264.4</ele>
        <time>2025-09-03T16:18:02Z</time>
      </trkpt>
      <trkpt lat="43.52694" lon="1.0793">
        <ele>262.9</ele>
        <time>2025-09-03T16:18:09Z</time>
      </trkpt>
      <trkpt lat="43.52695" lon="1.07857">
        <ele>262.8</ele>
        <time>2025-09-03T16:18:21Z</time>
      </trkpt>
      <trkpt lat="43.52703" lon="1.07773">
        <ele>260.5</ele>
        <time>2025-09-03T16:18:36Z</time>
      </trkpt>
      <trkpt lat="43.52693" lon="1.07655">
        <ele>254.5</ele>
        <time>2025-09-03T16:18:56Z</time>
      </trkpt>
      <trkpt lat="43.52692" lon="1.0757">
        <ele>251.3</ele>
        <time>2025-09-03T16:19:10Z</time>
      </trkpt>
      <trkpt lat="43.52697" lon="1.07571">
        <ele>251.5</ele>
        <time>2025-09-03T16:19:11Z</time>
      </trkpt>
      <trkpt lat="43.52706" lon="1.07579">
        <ele>251.4</ele>
        <time>2025-09-03T16:19:14Z</time>
      </trkpt>
      <trkpt lat="43.52768" lon="1.07687">
        <ele>253.4</ele>
        <time>2025-09-03T16:19:37Z</time>
      </trkpt>
      <trkpt lat="43.52792" lon="1.07797">
        <ele>248</ele>
        <time>2025-09-03T16:19:57Z</time>
      </trkpt>
      <trkpt lat="43.52817" lon="1.07847">
        <ele>247.3</ele>
        <time>2025-09-03T16:20:07Z</time>
      </trkpt>
      <trkpt lat="43.52845" lon="1.07934">
        <ele>244.6</ele>
        <time>2025-09-03T16:20:23Z</time>
      </trkpt>
      <trkpt lat="43.52862" lon="1.08007">
        <ele>245.2</ele>
        <time>2025-09-03T16:20:36Z</time>
      </trkpt>
      <trkpt lat="43.52869" lon="1.08026">
        <ele>245.3</ele>
        <time>2025-09-03T16:20:40Z</time>
      </trkpt>
      <trkpt lat="43.52885" lon="1.08035">
        <ele>245</ele>
        <time>2025-09-03T16:20:44Z</time>
      </trkpt>
      <trkpt lat="43.53065" lon="1.08081">
        <ele>256.1</ele>
        <time>2025-09-03T16:21:27Z</time>
      </trkpt>
      <trkpt lat="43.53111" lon="1.08108">
        <ele>254.7</ele>
        <time>2025-09-03T16:21:38Z</time>
      </trkpt>
      <trkpt lat="43.53129" lon="1.08141">
        <ele>254.6</ele>
        <time>2025-09-03T16:21:45Z</time>
      </trkpt>
      <trkpt lat="43.53137" lon="1.08181">
        <ele>255.4</ele>
        <time>2025-09-03T16:21:52Z</time>
      </trkpt>
      <trkpt lat="43.5319" lon="1.08173">
        <ele>247.3</ele>
        <time>2025-09-03T16:22:05Z</time>
      </trkpt>
      <trkpt lat="43.53355" lon="1.08199">
        <ele>242.3</ele>
        <time>2025-09-03T16:22:43Z</time>
      </trkpt>
      <trkpt lat="43.53406" lon="1.08191">
        <ele>244</ele>
        <time>2025-09-03T16:22:55Z</time>
      </trkpt>
      <trkpt lat="43.53432" lon="1.08137">
        <ele>242.6</ele>
        <time>2025-09-03T16:23:06Z</time>
      </trkpt>
      <trkpt lat="43.53444" lon="1.08092">
        <ele>242.3</ele>
        <time>2025-09-03T16:23:15Z</time>
      </trkpt>
      <trkpt lat="43.53451" lon="1.08042">
        <ele>241.2</ele>
        <time>2025-09-03T16:23:23Z</time>
      </trkpt>
      <trkpt lat="43.53449" lon="1.08008">
        <ele>240.4</ele>
        <time>2025-09-03T16:23:29Z</time>
      </trkpt>
      <trkpt lat="43.53438" lon="1.07938">
        <ele>241.6</ele>
        <time>2025-09-03T16:23:41Z</time>
      </trkpt>
      <trkpt lat="43.53435" lon="1.07809">
        <ele>245.3</ele>
        <time>2025-09-03T16:24:03Z</time>
      </trkpt>
      <trkpt lat="43.53453" lon="1.07723">
        <ele>246.7</ele>
        <time>2025-09-03T16:24:18Z</time>
      </trkpt>
      <trkpt lat="43.53451" lon="1.07669">
        <ele>247</ele>
        <time>2025-09-03T16:24:27Z</time>
      </trkpt>
      <trkpt lat="43.53427" lon="1.07579">
        <ele>247.2</ele>
        <time>2025-09-03T16:24:43Z</time>
      </trkpt>
      <trkpt lat="43.53426" lon="1.07524">
        <ele>248.7</ele>
        <time>2025-09-03T16:24:53Z</time>
      </trkpt>
      <trkpt lat="43.53473" lon="1.07352">
        <ele>246.3</ele>
        <time>2025-09-03T16:25:24Z</time>
      </trkpt>
      <trkpt lat="43.53476" lon="1.07329">
        <ele>246.9</ele>
        <time>2025-09-03T16:25:28Z</time>
      </trkpt>
      <trkpt lat="43.53487" lon="1.0721">
        <ele>247.2</ele>
        <time>2025-09-03T16:25:48Z</time>
      </trkpt>
      <trkpt lat="43.53478" lon="1.07036">
        <ele>244.1</ele>
        <time>2025-09-03T16:26:18Z</time>
      </trkpt>
      <trkpt lat="43.53492" lon="1.06975">
        <ele>242</ele>
        <time>2025-09-03T16:26:29Z</time>
      </trkpt>
      <trkpt lat="43.53506" lon="1.06939">
        <ele>241.6</ele>
        <time>2025-09-03T16:26:35Z</time>
      </trkpt>
      <trkpt lat="43.53558" lon="1.06826">
        <ele>238.7</ele>
        <time>2025-09-03T16:26:58Z</time>
      </trkpt>
      <trkpt lat="43.53583" lon="1.06747">
        <ele>235.9</ele>
        <time>2025-09-03T16:27:13Z</time>
      </trkpt>
      <trkpt lat="43.53654" lon="1.06439">
        <ele>227.4</ele>
        <time>2025-09-03T16:28:07Z</time>
      </trkpt>
      <trkpt lat="43.53652" lon="1.06349">
        <ele>225.6</ele>
        <time>2025-09-03T16:28:23Z</time>
      </trkpt>
      <trkpt lat="43.53647" lon="1.06295">
        <ele>224.3</ele>
        <time>2025-09-03T16:28:32Z</time>
      </trkpt>
      <trkpt lat="43.53704" lon="1.05879">
        <ele>213.3</ele>
        <time>2025-09-03T16:29:44Z</time>
      </trkpt>
      <trkpt lat="43.53719" lon="1.05847">
        <ele>209.5</ele>
        <time>2025-09-03T16:29:50Z</time>
      </trkpt>
      <trkpt lat="43.53779" lon="1.05803">
        <ele>204.7</ele>
        <time>2025-09-03T16:30:06Z</time>
      </trkpt>
      <trkpt lat="43.53811" lon="1.05756">
        <ele>203</ele>
        <time>2025-09-03T16:30:17Z</time>
      </trkpt>
      <trkpt lat="43.53835" lon="1.05699">
        <ele>200.1</ele>
        <time>2025-09-03T16:30:28Z</time>
      </trkpt>
      <trkpt lat="43.53918" lon="1.05478">
        <ele>190.4</ele>
        <time>2025-09-03T16:31:10Z</time>
      </trkpt>
      <trkpt lat="43.53996" lon="1.05289">
        <ele>179.7</ele>
        <time>2025-09-03T16:31:47Z</time>
      </trkpt>
      <trkpt lat="43.5402" lon="1.05233">
        <ele>175.8</ele>
        <time>2025-09-03T16:31:58Z</time>
      </trkpt>
      <trkpt lat="43.54112" lon="1.05051">
        <ele>168.9</ele>
        <time>2025-09-03T16:32:35Z</time>
      </trkpt>
      <trkpt lat="43.541" lon="1.04931">
        <ele>168.5</ele>
        <time>2025-09-03T16:32:56Z</time>
      </trkpt>
      <trkpt lat="43.54103" lon="1.04857">
        <ele>169.9</ele>
        <time>2025-09-03T16:33:09Z</time>
      </trkpt>
      <trkpt lat="43.54102" lon="1.04821">
        <ele>170.5</ele>
        <time>2025-09-03T16:33:15Z</time>
      </trkpt>
      <trkpt lat="43.54091" lon="1.04747">
        <ele>170.8</ele>
        <time>2025-09-03T16:33:27Z</time>
      </trkpt>
      <trkpt lat="43.54091" lon="1.04723">
        <ele>169.5</ele>
        <time>2025-09-03T16:33:31Z</time>
      </trkpt>
      <trkpt lat="43.54102" lon="1.04658">
        <ele>165.5</ele>
        <time>2025-09-03T16:33:43Z</time>
      </trkpt>
      <trkpt lat="43.54106" lon="1.04662">
        <ele>165.3</ele>
        <time>2025-09-03T16:33:44Z</time>
      </trkpt>
      <trkpt lat="43.54098" lon="1.04718">
        <ele>168.7</ele>
        <time>2025-09-03T16:33:54Z</time>
      </trkpt>
      <trkpt lat="43.54098" lon="1.04744">
        <ele>170.6</ele>
        <time>2025-09-03T16:33:58Z</time>
      </trkpt>
      <trkpt lat="43.54101" lon="1.04764">
        <ele>171</ele>
        <time>2025-09-03T16:34:01Z</time>
      </trkpt>
      <trkpt lat="43.54336" lon="1.05184">
        <ele>199.6</ele>
        <time>2025-09-03T16:35:31Z</time>
      </trkpt>
      <trkpt lat="43.54412" lon="1.05314">
        <ele>216.3</ele>
        <time>2025-09-03T16:36:00Z</time>
      </trkpt>
      <trkpt lat="43.5442" lon="1.05347">
        <ele>217.1</ele>
        <time>2025-09-03T16:36:05Z</time>
      </trkpt>
      <trkpt lat="43.5442" lon="1.05398">
        <ele>217.4</ele>
        <time>2025-09-03T16:36:14Z</time>
      </trkpt>
      <trkpt lat="43.54402" lon="1.056">
        <ele>218.8</ele>
        <time>2025-09-03T16:36:49Z</time>
      </trkpt>
      <trkpt lat="43.54374" lon="1.05824">
        <ele>221.2</ele>
        <time>2025-09-03T16:37:27Z</time>
      </trkpt>
      <trkpt lat="43.54369" lon="1.05885">
        <ele>221.7</ele>
        <time>2025-09-03T16:37:37Z</time>
      </trkpt>
      <trkpt lat="43.54325" lon="1.06075">
        <ele>223.6</ele>
        <time>2025-09-03T16:38:11Z</time>
      </trkpt>
      <trkpt lat="43.54321" lon="1.06101">
        <ele>223.8</ele>
        <time>2025-09-03T16:38:16Z</time>
      </trkpt>
      <trkpt lat="43.54325" lon="1.06106">
        <ele>223.9</ele>
        <time>2025-09-03T16:38:17Z</time>
      </trkpt>
      <trkpt lat="43.54333" lon="1.06108">
        <ele>224</ele>
        <time>2025-09-03T16:38:19Z</time>
      </trkpt>
      <trkpt lat="43.54636" lon="1.06101">
        <ele>191.1</ele>
        <time>2025-09-03T16:39:30Z</time>
      </trkpt>
      <trkpt lat="43.54854" lon="1.06143">
        <ele>177.2</ele>
        <time>2025-09-03T16:40:21Z</time>
      </trkpt>
      <trkpt lat="43.54866" lon="1.06154">
        <ele>176.8</ele>
        <time>2025-09-03T16:40:24Z</time>
      </trkpt>
      <trkpt lat="43.5489" lon="1.06199">
        <ele>177.2</ele>
        <time>2025-09-03T16:40:34Z</time>
      </trkpt>
      <trkpt lat="43.54886" lon="1.06212">
        <ele>177.6</ele>
        <time>2025-09-03T16:40:36Z</time>
      </trkpt>
      <trkpt lat="43.54839" lon="1.06476">
        <ele>191.8</ele>
        <time>2025-09-03T16:41:22Z</time>
      </trkpt>
      <trkpt lat="43.548" lon="1.06646">
        <ele>196.3</ele>
        <time>2025-09-03T16:41:52Z</time>
      </trkpt>
      <trkpt lat="43.54763" lon="1.06763">
        <ele>200.4</ele>
        <time>2025-09-03T16:42:14Z</time>
      </trkpt>
      <trkpt lat="43.54651" lon="1.07064">
        <ele>214.9</ele>
        <time>2025-09-03T16:43:11Z</time>
      </trkpt>
      <trkpt lat="43.54641" lon="1.07107">
        <ele>215.8</ele>
        <time>2025-09-03T16:43:19Z</time>
      </trkpt>
      <trkpt lat="43.54644" lon="1.07153">
        <ele>215.8</ele>
        <time>2025-09-03T16:43:27Z</time>
      </trkpt>
      <trkpt lat="43.54685" lon="1.07499">
        <ele>229.3</ele>
        <time>2025-09-03T16:44:26Z</time>
      </trkpt>
      <trkpt lat="43.54713" lon="1.07728">
        <ele>235.9</ele>
        <time>2025-09-03T16:45:05Z</time>
      </trkpt>
      <trkpt lat="43.54744" lon="1.07951">
        <ele>239.8</ele>
        <time>2025-09-03T16:45:44Z</time>
      </trkpt>
      <trkpt lat="43.54742" lon="1.07971">
        <ele>238.7</ele>
        <time>2025-09-03T16:45:47Z</time>
      </trkpt>
      <trkpt lat="43.54714" lon="1.08039">
        <ele>237.7</ele>
        <time>2025-09-03T16:46:00Z</time>
      </trkpt>
      <trkpt lat="43.54659" lon="1.08218">
        <ele>239.6</ele>
        <time>2025-09-03T16:46:33Z</time>
      </trkpt>
      <trkpt lat="43.54658" lon="1.0824">
        <ele>239.6</ele>
        <time>2025-09-03T16:46:37Z</time>
      </trkpt>
      <trkpt lat="43.54676" lon="1.08421">
        <ele>238.7</ele>
        <time>2025-09-03T16:47:08Z</time>
      </trkpt>
      <trkpt lat="43.54688" lon="1.08496">
        <ele>240.4</ele>
        <time>2025-09-03T16:47:21Z</time>
      </trkpt>
      <trkpt lat="43.54695" lon="1.08572">
        <ele>240.4</ele>
        <time>2025-09-03T16:47:34Z</time>
      </trkpt>
      <trkpt lat="43.54712" lon="1.08659">
        <ele>239.3</ele>
        <time>2025-09-03T16:47:49Z</time>
      </trkpt>
      <trkpt lat="43.54703" lon="1.0887">
        <ele>245.4</ele>
        <time>2025-09-03T16:48:25Z</time>
      </trkpt>
      <trkpt lat="43.54707" lon="1.08932">
        <ele>247.3</ele>
        <time>2025-09-03T16:48:36Z</time>
      </trkpt>
      <trkpt lat="43.54695" lon="1.09062">
        <ele>255</ele>
        <time>2025-09-03T16:48:58Z</time>
      </trkpt>
      <trkpt lat="43.54645" lon="1.09278">
        <ele>263.7</ele>
        <time>2025-09-03T16:49:36Z</time>
      </trkpt>
      <trkpt lat="43.54608" lon="1.09403">
        <ele>263.6</ele>
        <time>2025-09-03T16:49:59Z</time>
      </trkpt>
      <trkpt lat="43.54579" lon="1.09511">
        <ele>261</ele>
        <time>2025-09-03T16:50:18Z</time>
      </trkpt>
      <trkpt lat="43.54549" lon="1.09731">
        <ele>257</ele>
        <time>2025-09-03T16:50:56Z</time>
      </trkpt>
      <trkpt lat="43.54551" lon="1.09739">
        <ele>257</ele>
        <time>2025-09-03T16:50:58Z</time>
      </trkpt>
      <trkpt lat="43.54565" lon="1.09742">
        <ele>257.3</ele>
        <time>2025-09-03T16:51:01Z</time>
      </trkpt>
      <trkpt lat="43.54586" lon="1.09742">
        <ele>258</ele>
        <time>2025-09-03T16:51:06Z</time>
      </trkpt>
      <trkpt lat="43.54618" lon="1.09737">
        <ele>258.5</ele>
        <time>2025-09-03T16:51:14Z</time>
      </trkpt>
      <trkpt lat="43.54648" lon="1.09725">
        <ele>257.8</ele>
        <time>2025-09-03T16:51:21Z</time>
      </trkpt>
      <trkpt lat="43.54807" lon="1.09617">
        <ele>253.6</ele>
        <time>2025-09-03T16:52:02Z</time>
      </trkpt>
      <trkpt lat="43.54836" lon="1.09606">
        <ele>252.6</ele>
        <time>2025-09-03T16:52:09Z</time>
      </trkpt>
      <trkpt lat="43.54979" lon="1.09578">
        <ele>245.9</ele>
        <time>2025-09-03T16:52:43Z</time>
      </trkpt>
      <trkpt lat="43.54998" lon="1.09567">
        <ele>245.8</ele>
        <time>2025-09-03T16:52:48Z</time>
      </trkpt>
      <trkpt lat="43.55079" lon="1.09493">
        <ele>248.7</ele>
        <time>2025-09-03T16:53:10Z</time>
      </trkpt>
      <trkpt lat="43.5519" lon="1.09397">
        <ele>251.3</ele>
        <time>2025-09-03T16:53:41Z</time>
      </trkpt>
      <trkpt lat="43.55431" lon="1.0922">
        <ele>251</ele>
        <time>2025-09-03T16:54:45Z</time>
      </trkpt>
      <trkpt lat="43.55714" lon="1.09082">
        <ele>253</ele>
        <time>2025-09-03T16:55:55Z</time>
      </trkpt>
      <trkpt lat="43.55712" lon="1.09096">
        <ele>252.8</ele>
        <time>2025-09-03T16:55:57Z</time>
      </trkpt>
      <trkpt lat="43.55511" lon="1.09634">
        <ele>247.4</ele>
        <time>2025-09-03T16:57:40Z</time>
      </trkpt>
      <trkpt lat="43.55467" lon="1.09761">
        <ele>246.8</ele>
        <time>2025-09-03T16:58:04Z</time>
      </trkpt>
      <trkpt lat="43.55397" lon="1.09901">
        <ele>245</ele>
        <time>2025-09-03T16:58:32Z</time>
      </trkpt>
      <trkpt lat="43.55377" lon="1.09947">
        <ele>244.1</ele>
        <time>2025-09-03T16:58:41Z</time>
      </trkpt>
      <trkpt lat="43.55271" lon="1.10272">
        <ele>242</ele>
        <time>2025-09-03T16:59:42Z</time>
      </trkpt>
      <trkpt lat="43.55285" lon="1.10224">
        <ele>242.3</ele>
        <time>2025-09-03T16:59:51Z</time>
      </trkpt>
      <trkpt lat="43.55307" lon="1.10241">
        <ele>243.1</ele>
        <time>2025-09-03T16:59:56Z</time>
      </trkpt>
      <trkpt lat="43.55319" lon="1.10223">
        <ele>243.5</ele>
        <time>2025-09-03T17:00:01Z</time>
      </trkpt>
      <trkpt lat="43.55475" lon="1.10291">
        <ele>252.2</ele>
        <time>2025-09-03T17:00:39Z</time>
      </trkpt>
      <trkpt lat="43.55544" lon="1.10326">
        <ele>259.8</ele>
        <time>2025-09-03T17:00:56Z</time>
      </trkpt>
      <trkpt lat="43.55699" lon="1.10399">
        <ele>265.9</ele>
        <time>2025-09-03T17:01:34Z</time>
      </trkpt>
      <trkpt lat="43.55775" lon="1.10432">
        <ele>268.9</ele>
        <time>2025-09-03T17:01:53Z</time>
      </trkpt>
      <trkpt lat="43.5578" lon="1.1047">
        <ele>267.8</ele>
        <time>2025-09-03T17:01:59Z</time>
      </trkpt>
      <trkpt lat="43.55799" lon="1.10566">
        <ele>270.2</ele>
        <time>2025-09-03T17:02:16Z</time>
      </trkpt>
      <trkpt lat="43.55827" lon="1.10616">
        <ele>270.3</ele>
        <time>2025-09-03T17:02:27Z</time>
      </trkpt>
      <trkpt lat="43.55835" lon="1.10713">
        <ele>277.8</ele>
        <time>2025-09-03T17:02:43Z</time>
      </trkpt>
      <trkpt lat="43.55836" lon="1.10765">
        <ele>283.2</ele>
        <time>2025-09-03T17:02:52Z</time>
      </trkpt>
      <trkpt lat="43.55851" lon="1.10819">
        <ele>287.9</ele>
        <time>2025-09-03T17:03:02Z</time>
      </trkpt>
      <trkpt lat="43.55865" lon="1.1085">
        <ele>291.5</ele>
        <time>2025-09-03T17:03:08Z</time>
      </trkpt>
      <trkpt lat="43.55902" lon="1.10881">
        <ele>293.9</ele>
        <time>2025-09-03T17:03:18Z</time>
      </trkpt>
      <trkpt lat="43.55912" lon="1.10906">
        <ele>294</ele>
        <time>2025-09-03T17:03:23Z</time>
      </trkpt>
      <trkpt lat="43.55931" lon="1.10979">
        <ele>294.5</ele>
        <time>2025-09-03T17:03:36Z</time>
      </trkpt>
      <trkpt lat="43.5596" lon="1.11194">
        <ele>301.2</ele>
        <time>2025-09-03T17:04:13Z</time>
      </trkpt>
      <trkpt lat="43.55956" lon="1.11301">
        <ele>300.7</ele>
        <time>2025-09-03T17:04:31Z</time>
      </trkpt>
      <trkpt lat="43.55938" lon="1.11422">
        <ele>304</ele>
        <time>2025-09-03T17:04:52Z</time>
      </trkpt>
      <trkpt lat="43.55936" lon="1.11471">
        <ele>304.7</ele>
        <time>2025-09-03T17:05:01Z</time>
      </trkpt>
      <trkpt lat="43.55943" lon="1.11497">
        <ele>305</ele>
        <time>2025-09-03T17:05:05Z</time>
      </trkpt>
      <trkpt lat="43.5596" lon="1.11539">
        <ele>305.1</ele>
        <time>2025-09-03T17:05:13Z</time>
      </trkpt>
      <trkpt lat="43.55966" lon="1.1155">
        <ele>305.1</ele>
        <time>2025-09-03T17:05:16Z</time>
      </trkpt>
      <trkpt lat="43.55985" lon="1.11572">
        <ele>303</ele>
        <time>2025-09-03T17:05:22Z</time>
      </trkpt>
      <trkpt lat="43.56001" lon="1.11601">
        <ele>300.9</ele>
        <time>2025-09-03T17:05:28Z</time>
      </trkpt>
      <trkpt lat="43.56011" lon="1.11628">
        <ele>299.6</ele>
        <time>2025-09-03T17:05:33Z</time>
      </trkpt>
      <trkpt lat="43.56012" lon="1.11642">
        <ele>299.2</ele>
        <time>2025-09-03T17:05:35Z</time>
      </trkpt>
      <trkpt lat="43.56005" lon="1.11699">
        <ele>299.5</ele>
        <time>2025-09-03T17:05:45Z</time>
      </trkpt>
      <trkpt lat="43.56019" lon="1.11811">
        <ele>298.4</ele>
        <time>2025-09-03T17:06:04Z</time>
      </trkpt>
      <trkpt lat="43.56019" lon="1.11839">
        <ele>298.8</ele>
        <time>2025-09-03T17:06:09Z</time>
      </trkpt>
      <trkpt lat="43.56011" lon="1.11897">
        <ele>299.6</ele>
        <time>2025-09-03T17:06:19Z</time>
      </trkpt>
      <trkpt lat="43.56012" lon="1.11912">
        <ele>299.6</ele>
        <time>2025-09-03T17:06:21Z</time>
      </trkpt>
      <trkpt lat="43.56024" lon="1.11941">
        <ele>299.1</ele>
        <time>2025-09-03T17:06:27Z</time>
      </trkpt>
      <trkpt lat="43.56056" lon="1.11995">
        <ele>299</ele>
        <time>2025-09-03T17:06:39Z</time>
      </trkpt>
      <trkpt lat="43.5609" lon="1.12042">
        <ele>299.2</ele>
        <time>2025-09-03T17:06:50Z</time>
      </trkpt>
      <trkpt lat="43.56108" lon="1.1206">
        <ele>299.9</ele>
        <time>2025-09-03T17:06:55Z</time>
      </trkpt>
      <trkpt lat="43.56232" lon="1.1216">
        <ele>301.1</ele>
        <time>2025-09-03T17:07:29Z</time>
      </trkpt>
      <trkpt lat="43.5625" lon="1.12179">
        <ele>300.9</ele>
        <time>2025-09-03T17:07:34Z</time>
      </trkpt>
      <trkpt lat="43.56272" lon="1.12209">
        <ele>300</ele>
        <time>2025-09-03T17:07:41Z</time>
      </trkpt>
      <trkpt lat="43.56287" lon="1.12223">
        <ele>299</ele>
        <time>2025-09-03T17:07:46Z</time>
      </trkpt>
      <trkpt lat="43.56301" lon="1.12233">
        <ele>297.5</ele>
        <time>2025-09-03T17:07:49Z</time>
      </trkpt>
      <trkpt lat="43.56358" lon="1.12256">
        <ele>290.2</ele>
        <time>2025-09-03T17:08:03Z</time>
      </trkpt>
      <trkpt lat="43.56382" lon="1.12271">
        <ele>286.1</ele>
        <time>2025-09-03T17:08:09Z</time>
      </trkpt>
      <trkpt lat="43.56395" lon="1.12299">
        <ele>283.1</ele>
        <time>2025-09-03T17:08:15Z</time>
      </trkpt>
      <trkpt lat="43.56379" lon="1.12393">
        <ele>278.6</ele>
        <time>2025-09-03T17:08:31Z</time>
      </trkpt>
      <trkpt lat="43.56374" lon="1.12411">
        <ele>276.8</ele>
        <time>2025-09-03T17:08:35Z</time>
      </trkpt>
      <trkpt lat="43.56329" lon="1.12446">
        <ele>277.8</ele>
        <time>2025-09-03T17:08:47Z</time>
      </trkpt>
      <trkpt lat="43.56309" lon="1.12485">
        <ele>277.5</ele>
        <time>2025-09-03T17:08:55Z</time>
      </trkpt>
      <trkpt lat="43.5629" lon="1.12539">
        <ele>277.8</ele>
        <time>2025-09-03T17:09:05Z</time>
      </trkpt>
      <trkpt lat="43.5628" lon="1.12674">
        <ele>276.6</ele>
        <time>2025-09-03T17:09:28Z</time>
      </trkpt>
      <trkpt lat="43.56278" lon="1.12742">
        <ele>277</ele>
        <time>2025-09-03T17:09:39Z</time>
      </trkpt>
      <trkpt lat="43.56282" lon="1.12784">
        <ele>276.7</ele>
        <time>2025-09-03T17:09:47Z</time>
      </trkpt>
      <trkpt lat="43.56282" lon="1.12872">
        <ele>279.6</ele>
        <time>2025-09-03T17:10:01Z</time>
      </trkpt>
      <trkpt lat="43.56278" lon="1.12925">
        <ele>281.3</ele>
        <time>2025-09-03T17:10:10Z</time>
      </trkpt>
      <trkpt lat="43.56266" lon="1.13016">
        <ele>284.8</ele>
        <time>2025-09-03T17:10:26Z</time>
      </trkpt>
      <trkpt lat="43.56264" lon="1.13048">
        <ele>284.6</ele>
        <time>2025-09-03T17:10:32Z</time>
      </trkpt>
      <trkpt lat="43.56267" lon="1.13091">
        <ele>284.6</ele>
        <time>2025-09-03T17:10:39Z</time>
      </trkpt>
      <trkpt lat="43.56266" lon="1.13125">
        <ele>284.5</ele>
        <time>2025-09-03T17:10:45Z</time>
      </trkpt>
      <trkpt lat="43.56249" lon="1.1324">
        <ele>284.1</ele>
        <time>2025-09-03T17:11:04Z</time>
      </trkpt>
      <trkpt lat="43.56239" lon="1.13287">
        <ele>284.2</ele>
        <time>2025-09-03T17:11:13Z</time>
      </trkpt>
      <trkpt lat="43.56316" lon="1.1332">
        <ele>275.3</ele>
        <time>2025-09-03T17:11:32Z</time>
      </trkpt>
      <trkpt lat="43.56535" lon="1.13394">
        <ele>247.7</ele>
        <time>2025-09-03T17:12:24Z</time>
      </trkpt>
      <trkpt lat="43.5701" lon="1.13581">
        <ele>246.7</ele>
        <time>2025-09-03T17:14:20Z</time>
      </trkpt>
      <trkpt lat="43.57167" lon="1.13657">
        <ele>248.4</ele>
        <time>2025-09-03T17:14:58Z</time>
      </trkpt>
      <trkpt lat="43.57367" lon="1.13914">
        <ele>270.3</ele>
        <time>2025-09-03T17:16:02Z</time>
      </trkpt>
      <trkpt lat="43.57403" lon="1.13853">
        <ele>273.7</ele>
        <time>2025-09-03T17:16:16Z</time>
      </trkpt>
      <trkpt lat="43.57575" lon="1.1349">
        <ele>298.5</ele>
        <time>2025-09-03T17:17:29Z</time>
      </trkpt>
      <trkpt lat="43.5768" lon="1.1328">
        <ele>301.5</ele>
        <time>2025-09-03T17:18:12Z</time>
      </trkpt>
      <trkpt lat="43.5777" lon="1.13128">
        <ele>299.5</ele>
        <time>2025-09-03T17:18:45Z</time>
      </trkpt>
      <trkpt lat="43.57846" lon="1.13141">
        <ele>301</ele>
        <time>2025-09-03T17:19:03Z</time>
      </trkpt>
      <trkpt lat="43.57913" lon="1.1316">
        <ele>300.1</ele>
        <time>2025-09-03T17:19:19Z</time>
      </trkpt>
      <trkpt lat="43.58058" lon="1.13243">
        <ele>303</ele>
        <time>2025-09-03T17:19:56Z</time>
      </trkpt>
      <trkpt lat="43.58075" lon="1.13257">
        <ele>303</ele>
        <time>2025-09-03T17:20:00Z</time>
      </trkpt>
      <trkpt lat="43.58092" lon="1.13277">
        <ele>303</ele>
        <time>2025-09-03T17:20:06Z</time>
      </trkpt>
      <trkpt lat="43.58099" lon="1.13292">
        <ele>302.7</ele>
        <time>2025-09-03T17:20:09Z</time>
      </trkpt>
      <trkpt lat="43.58111" lon="1.13282">
        <ele>302.8</ele>
        <time>2025-09-03T17:20:12Z</time>
      </trkpt>
      <trkpt lat="43.58119" lon="1.13263">
        <ele>302.6</ele>
        <time>2025-09-03T17:20:16Z</time>
      </trkpt>
      <trkpt lat="43.58188" lon="1.13011">
        <ele>301.1</ele>
        <time>2025-09-03T17:21:01Z</time>
      </trkpt>
      <trkpt lat="43.58213" lon="1.12957">
        <ele>299.2</ele>
        <time>2025-09-03T17:21:12Z</time>
      </trkpt>
      <trkpt lat="43.58262" lon="1.12883">
        <ele>296.4</ele>
        <time>2025-09-03T17:21:29Z</time>
      </trkpt>
      <trkpt lat="43.583" lon="1.12837">
        <ele>296.1</ele>
        <time>2025-09-03T17:21:41Z</time>
      </trkpt>
      <trkpt lat="43.58347" lon="1.12788">
        <ele>294.5</ele>
        <time>2025-09-03T17:21:55Z</time>
      </trkpt>
      <trkpt lat="43.58465" lon="1.12706">
        <ele>292.6</ele>
        <time>2025-09-03T17:22:25Z</time>
      </trkpt>
      <trkpt lat="43.58515" lon="1.1268">
        <ele>291.9</ele>
        <time>2025-09-03T17:22:38Z</time>
      </trkpt>
      <trkpt lat="43.58644" lon="1.12635">
        <ele>279.5</ele>
        <time>2025-09-03T17:23:09Z</time>
      </trkpt>
      <trkpt lat="43.58654" lon="1.12635">
        <ele>279.1</ele>
        <time>2025-09-03T17:23:11Z</time>
      </trkpt>
      <trkpt lat="43.5866" lon="1.12642">
        <ele>279.9</ele>
        <time>2025-09-03T17:23:13Z</time>
      </trkpt>
      <trkpt lat="43.58668" lon="1.1266">
        <ele>283.6</ele>
        <time>2025-09-03T17:23:17Z</time>
      </trkpt>
      <trkpt lat="43.58678" lon="1.12705">
        <ele>282.4</ele>
        <time>2025-09-03T17:23:25Z</time>
      </trkpt>
      <trkpt lat="43.58686" lon="1.1272">
        <ele>280.5</ele>
        <time>2025-09-03T17:23:28Z</time>
      </trkpt>
      <trkpt lat="43.58668" lon="1.12729">
        <ele>277.9</ele>
        <time>2025-09-03T17:23:32Z</time>
      </trkpt>
      <trkpt lat="43.58654" lon="1.12727">
        <ele>278.3</ele>
        <time>2025-09-03T17:23:36Z</time>
      </trkpt>
      <trkpt lat="43.58607" lon="1.12746">
        <ele>281.7</ele>
        <time>2025-09-03T17:23:47Z</time>
      </trkpt>
      <trkpt lat="43.58595" lon="1.12756">
        <ele>282</ele>
        <time>2025-09-03T17:23:50Z</time>
      </trkpt>
      <trkpt lat="43.5857" lon="1.12791">
        <ele>283.5</ele>
        <time>2025-09-03T17:23:59Z</time>
      </trkpt>
      <trkpt lat="43.5855" lon="1.12825">
        <ele>284.9</ele>
        <time>2025-09-03T17:24:06Z</time>
      </trkpt>
      <trkpt lat="43.5854" lon="1.12835">
        <ele>284.9</ele>
        <time>2025-09-03T17:24:09Z</time>
      </trkpt>
      <trkpt lat="43.58529" lon="1.12837">
        <ele>285.6</ele>
        <time>2025-09-03T17:24:12Z</time>
      </trkpt>
      <trkpt lat="43.58518" lon="1.12835">
        <ele>286.2</ele>
        <time>2025-09-03T17:24:14Z</time>
      </trkpt>
      <trkpt lat="43.58501" lon="1.12827">
        <ele>287.9</ele>
        <time>2025-09-03T17:24:18Z</time>
      </trkpt>
      <trkpt lat="43.58453" lon="1.12787">
        <ele>289.2</ele>
        <time>2025-09-03T17:24:31Z</time>
      </trkpt>
      <trkpt lat="43.58443" lon="1.12784">
        <ele>289.4</ele>
        <time>2025-09-03T17:24:34Z</time>
      </trkpt>
      <trkpt lat="43.58436" lon="1.12785">
        <ele>289.7</ele>
        <time>2025-09-03T17:24:35Z</time>
      </trkpt>
      <trkpt lat="43.58418" lon="1.12795">
        <ele>288.9</ele>
        <time>2025-09-03T17:24:40Z</time>
      </trkpt>
      <trkpt lat="43.58337" lon="1.12875">
        <ele>289.3</ele>
        <time>2025-09-03T17:25:03Z</time>
      </trkpt>
      <trkpt lat="43.58317" lon="1.12901">
        <ele>288.8</ele>
        <time>2025-09-03T17:25:10Z</time>
      </trkpt>
      <trkpt lat="43.58232" lon="1.13039">
        <ele>296</ele>
        <time>2025-09-03T17:25:40Z</time>
      </trkpt>
      <trkpt lat="43.58218" lon="1.13069">
        <ele>297.7</ele>
        <time>2025-09-03T17:25:46Z</time>
      </trkpt>
      <trkpt lat="43.58178" lon="1.13195">
        <ele>299.8</ele>
        <time>2025-09-03T17:26:10Z</time>
      </trkpt>
      <trkpt lat="43.58169" lon="1.13249">
        <ele>298.7</ele>
        <time>2025-09-03T17:26:19Z</time>
      </trkpt>
      <trkpt lat="43.58169" lon="1.13349">
        <ele>290.6</ele>
        <time>2025-09-03T17:26:36Z</time>
      </trkpt>
      <trkpt lat="43.58166" lon="1.13374">
        <ele>292.6</ele>
        <time>2025-09-03T17:26:40Z</time>
      </trkpt>
      <trkpt lat="43.58153" lon="1.13436">
        <ele>299.2</ele>
        <time>2025-09-03T17:26:51Z</time>
      </trkpt>
      <trkpt lat="43.5815" lon="1.13465">
        <ele>300.3</ele>
        <time>2025-09-03T17:26:56Z</time>
      </trkpt>
      <trkpt lat="43.58158" lon="1.13565">
        <ele>302</ele>
        <time>2025-09-03T17:27:13Z</time>
      </trkpt>
      <trkpt lat="43.58182" lon="1.13678">
        <ele>303.3</ele>
        <time>2025-09-03T17:27:33Z</time>
      </trkpt>
      <trkpt lat="43.58257" lon="1.13907">
        <ele>302.9</ele>
        <time>2025-09-03T17:28:16Z</time>
      </trkpt>
      <trkpt lat="43.58265" lon="1.13919">
        <ele>301.3</ele>
        <time>2025-09-03T17:28:18Z</time>
      </trkpt>
      <trkpt lat="43.58266" lon="1.13928">
        <ele>301.4</ele>
        <time>2025-09-03T17:28:20Z</time>
      </trkpt>
      <trkpt lat="43.58292" lon="1.14011">
        <ele>301</ele>
        <time>2025-09-03T17:28:35Z</time>
      </trkpt>
      <trkpt lat="43.58312" lon="1.14058">
        <ele>301.6</ele>
        <time>2025-09-03T17:28:44Z</time>
      </trkpt>
      <trkpt lat="43.58422" lon="1.14177">
        <ele>303.6</ele>
        <time>2025-09-03T17:29:17Z</time>
      </trkpt>
      <trkpt lat="43.58449" lon="1.1419">
        <ele>302.9</ele>
        <time>2025-09-03T17:29:24Z</time>
      </trkpt>
      <trkpt lat="43.58485" lon="1.14224">
        <ele>301.1</ele>
        <time>2025-09-03T17:29:34Z</time>
      </trkpt>
      <trkpt lat="43.5851" lon="1.14235">
        <ele>299.1</ele>
        <time>2025-09-03T17:29:40Z</time>
      </trkpt>
      <trkpt lat="43.58514" lon="1.14243">
        <ele>298.9</ele>
        <time>2025-09-03T17:29:42Z</time>
      </trkpt>
      <trkpt lat="43.58509" lon="1.14266">
        <ele>299.5</ele>
        <time>2025-09-03T17:29:46Z</time>
      </trkpt>
      <trkpt lat="43.58566" lon="1.14315">
        <ele>299.1</ele>
        <time>2025-09-03T17:30:01Z</time>
      </trkpt>
      <trkpt lat="43.58842" lon="1.14468">
        <ele>299.5</ele>
        <time>2025-09-03T17:31:11Z</time>
      </trkpt>
      <trkpt lat="43.58895" lon="1.145">
        <ele>299.8</ele>
        <time>2025-09-03T17:31:24Z</time>
      </trkpt>
      <trkpt lat="43.58922" lon="1.14524">
        <ele>300.6</ele>
        <time>2025-09-03T17:31:32Z</time>
      </trkpt>
      <trkpt lat="43.58947" lon="1.14561">
        <ele>300</ele>
        <time>2025-09-03T17:31:40Z</time>
      </trkpt>
      <trkpt lat="43.59089" lon="1.14913">
        <ele>301.2</ele>
        <time>2025-09-03T17:32:49Z</time>
      </trkpt>
      <trkpt lat="43.5914" lon="1.14948">
        <ele>301.9</ele>
        <time>2025-09-03T17:33:02Z</time>
      </trkpt>
      <trkpt lat="43.59137" lon="1.14994">
        <ele>300.9</ele>
        <time>2025-09-03T17:33:10Z</time>
      </trkpt>
      <trkpt lat="43.59109" lon="1.15106">
        <ele>296.2</ele>
        <time>2025-09-03T17:33:30Z</time>
      </trkpt>
      <trkpt lat="43.59252" lon="1.15171">
        <ele>291.6</ele>
        <time>2025-09-03T17:34:05Z</time>
      </trkpt>
      <trkpt lat="43.59359" lon="1.15202">
        <ele>294.2</ele>
        <time>2025-09-03T17:34:30Z</time>
      </trkpt>
      <trkpt lat="43.59408" lon="1.1522">
        <ele>296.7</ele>
        <time>2025-09-03T17:34:42Z</time>
      </trkpt>
      <trkpt lat="43.59417" lon="1.15215">
        <ele>297.3</ele>
        <time>2025-09-03T17:34:44Z</time>
      </trkpt>
      <trkpt lat="43.59418" lon="1.15075">
        <ele>299</ele>
        <time>2025-09-03T17:35:08Z</time>
      </trkpt>
      <trkpt lat="43.59421" lon="1.15035">
        <ele>298.9</ele>
        <time>2025-09-03T17:35:15Z</time>
      </trkpt>
      <trkpt lat="43.59461" lon="1.15047">
        <ele>298.1</ele>
        <time>2025-09-03T17:35:25Z</time>
      </trkpt>
      <trkpt lat="43.59579" lon="1.15098">
        <ele>293.5</ele>
        <time>2025-09-03T17:35:53Z</time>
      </trkpt>
      <trkpt lat="43.59686" lon="1.1506">
        <ele>296.6</ele>
        <time>2025-09-03T17:36:19Z</time>
      </trkpt>
      <trkpt lat="43.5979" lon="1.15089">
        <ele>293</ele>
        <time>2025-09-03T17:36:44Z</time>
      </trkpt>
      <trkpt lat="43.5986" lon="1.15124">
        <ele>292.5</ele>
        <time>2025-09-03T17:37:01Z</time>
      </trkpt>
      <trkpt lat="43.59962" lon="1.15098">
        <ele>288.4</ele>
        <time>2025-09-03T17:37:26Z</time>
      </trkpt>
      <trkpt lat="43.60028" lon="1.15102">
        <ele>286.7</ele>
        <time>2025-09-03T17:37:41Z</time>
      </trkpt>
      <trkpt lat="43.60088" lon="1.15135">
        <ele>290.4</ele>
        <time>2025-09-03T17:37:56Z</time>
      </trkpt>
      <trkpt lat="43.60127" lon="1.15207">
        <ele>290.1</ele>
        <time>2025-09-03T17:38:11Z</time>
      </trkpt>
      <trkpt lat="43.60165" lon="1.15318">
        <ele>289.6</ele>
        <time>2025-09-03T17:38:32Z</time>
      </trkpt>
      <trkpt lat="43.60197" lon="1.15387">
        <ele>290.5</ele>
        <time>2025-09-03T17:38:46Z</time>
      </trkpt>
      <trkpt lat="43.60326" lon="1.15494">
        <ele>290.7</ele>
        <time>2025-09-03T17:39:21Z</time>
      </trkpt>
      <trkpt lat="43.60325" lon="1.15534">
        <ele>290.8</ele>
        <time>2025-09-03T17:39:28Z</time>
      </trkpt>
      <trkpt lat="43.60299" lon="1.15694">
        <ele>290.2</ele>
        <time>2025-09-03T17:39:56Z</time>
      </trkpt>
      <trkpt lat="43.60253" lon="1.15833">
        <ele>289</ele>
        <time>2025-09-03T17:40:21Z</time>
      </trkpt>
      <trkpt lat="43.60169" lon="1.16012">
        <ele>288.1</ele>
        <time>2025-09-03T17:40:57Z</time>
      </trkpt>
      <trkpt lat="43.60109" lon="1.16205">
        <ele>288.8</ele>
        <time>2025-09-03T17:41:33Z</time>
      </trkpt>
      <trkpt lat="43.60111" lon="1.1629">
        <ele>290</ele>
        <time>2025-09-03T17:41:47Z</time>
      </trkpt>
      <trkpt lat="43.601" lon="1.16316">
        <ele>289.4</ele>
        <time>2025-09-03T17:41:52Z</time>
      </trkpt>
      <trkpt lat="43.60104" lon="1.16364">
        <ele>289.7</ele>
        <time>2025-09-03T17:42:01Z</time>
      </trkpt>
      <trkpt lat="43.60096" lon="1.16392">
        <ele>289.5</ele>
        <time>2025-09-03T17:42:06Z</time>
      </trkpt>
      <trkpt lat="43.601" lon="1.16435">
        <ele>289.6</ele>
        <time>2025-09-03T17:42:13Z</time>
      </trkpt>
      <trkpt lat="43.60112" lon="1.16489">
        <ele>289.4</ele>
        <time>2025-09-03T17:42:23Z</time>
      </trkpt>
      <trkpt lat="43.60117" lon="1.16578">
        <ele>287.8</ele>
        <time>2025-09-03T17:42:38Z</time>
      </trkpt>
      <trkpt lat="43.60139" lon="1.16615">
        <ele>286</ele>
        <time>2025-09-03T17:42:46Z</time>
      </trkpt>
      <trkpt lat="43.60197" lon="1.16603">
        <ele>283.9</ele>
        <time>2025-09-03T17:43:00Z</time>
      </trkpt>
      <trkpt lat="43.60243" lon="1.16579">
        <ele>282.4</ele>
        <time>2025-09-03T17:43:11Z</time>
      </trkpt>
      <trkpt lat="43.60351" lon="1.16596">
        <ele>278.4</ele>
        <time>2025-09-03T17:43:36Z</time>
      </trkpt>
      <trkpt lat="43.60418" lon="1.16638">
        <ele>275.8</ele>
        <time>2025-09-03T17:43:54Z</time>
      </trkpt>
      <trkpt lat="43.60465" lon="1.16798">
        <ele>274.3</ele>
        <time>2025-09-03T17:44:23Z</time>
      </trkpt>
      <trkpt lat="43.60493" lon="1.16919">
        <ele>274</ele>
        <time>2025-09-03T17:44:44Z</time>
      </trkpt>
      <trkpt lat="43.6049" lon="1.17077">
        <ele>274</ele>
        <time>2025-09-03T17:45:11Z</time>
      </trkpt>
      <trkpt lat="43.60514" lon="1.17189">
        <ele>274</ele>
        <time>2025-09-03T17:45:31Z</time>
      </trkpt>
      <trkpt lat="43.60574" lon="1.1729">
        <ele>273</ele>
        <time>2025-09-03T17:45:53Z</time>
      </trkpt>
      <trkpt lat="43.60592" lon="1.17333">
        <ele>271.7</ele>
        <time>2025-09-03T17:46:01Z</time>
      </trkpt>
      <trkpt lat="43.60601" lon="1.17391">
        <ele>271.4</ele>
        <time>2025-09-03T17:46:11Z</time>
      </trkpt>
      <trkpt lat="43.60656" lon="1.17417">
        <ele>272</ele>
        <time>2025-09-03T17:46:25Z</time>
      </trkpt>
      <trkpt lat="43.60687" lon="1.17456">
        <ele>273</ele>
        <time>2025-09-03T17:46:35Z</time>
      </trkpt>
      <trkpt lat="43.60724" lon="1.17473">
        <ele>272.9</ele>
        <time>2025-09-03T17:46:44Z</time>
      </trkpt>
      <trkpt lat="43.60749" lon="1.17578">
        <ele>273</ele>
        <time>2025-09-03T17:47:02Z</time>
      </trkpt>
      <trkpt lat="43.60811" lon="1.1774">
        <ele>273</ele>
        <time>2025-09-03T17:47:33Z</time>
      </trkpt>
      <trkpt lat="43.60834" lon="1.17811">
        <ele>273</ele>
        <time>2025-09-03T17:47:47Z</time>
      </trkpt>
      <trkpt lat="43.60864" lon="1.17867">
        <ele>273</ele>
        <time>2025-09-03T17:47:58Z</time>
      </trkpt>
      <trkpt lat="43.60914" lon="1.17896">
        <ele>273</ele>
        <time>2025-09-03T17:48:11Z</time>
      </trkpt>
      <trkpt lat="43.61048" lon="1.17963">
        <ele>271.3</ele>
        <time>2025-09-03T17:48:44Z</time>
      </trkpt>
      <trkpt lat="43.611" lon="1.18014">
        <ele>269.1</ele>
        <time>2025-09-03T17:48:59Z</time>
      </trkpt>
      <trkpt lat="43.61156" lon="1.18089">
        <ele>264.2</ele>
        <time>2025-09-03T17:49:17Z</time>
      </trkpt>
      <trkpt lat="43.61197" lon="1.18114">
        <ele>259.8</ele>
        <time>2025-09-03T17:49:28Z</time>
      </trkpt>
      <trkpt lat="43.61252" lon="1.18175">
        <ele>257.9</ele>
        <time>2025-09-03T17:49:44Z</time>
      </trkpt>
      <trkpt lat="43.61479" lon="1.18962">
        <ele>237</ele>
        <time>2025-09-03T17:52:08Z</time>
      </trkpt>
      <trkpt lat="43.6149" lon="1.1897">
        <ele>237</ele>
        <time>2025-09-03T17:52:10Z</time>
      </trkpt>
      <trkpt lat="43.61527" lon="1.18968">
        <ele>237.1</ele>
        <time>2025-09-03T17:52:19Z</time>
      </trkpt>
      <trkpt lat="43.61587" lon="1.18951">
        <ele>239.1</ele>
        <time>2025-09-03T17:52:33Z</time>
      </trkpt>
      <trkpt lat="43.61621" lon="1.18937">
        <ele>240.1</ele>
        <time>2025-09-03T17:52:42Z</time>
      </trkpt>
      <trkpt lat="43.61651" lon="1.18935">
        <ele>240.3</ele>
        <time>2025-09-03T17:52:49Z</time>
      </trkpt>
      <trkpt lat="43.6168" lon="1.18948">
        <ele>239.9</ele>
        <time>2025-09-03T17:52:56Z</time>
      </trkpt>
      <trkpt lat="43.61741" lon="1.19015">
        <ele>234.6</ele>
        <time>2025-09-03T17:53:14Z</time>
      </trkpt>
      <trkpt lat="43.61793" lon="1.19035">
        <ele>229.4</ele>
        <time>2025-09-03T17:53:27Z</time>
      </trkpt>
      <trkpt lat="43.61808" lon="1.19037">
        <ele>228.2</ele>
        <time>2025-09-03T17:53:30Z</time>
      </trkpt>
      <trkpt lat="43.61854" lon="1.19032">
        <ele>226.8</ele>
        <time>2025-09-03T17:53:41Z</time>
      </trkpt>
      <trkpt lat="43.61878" lon="1.19039">
        <ele>225.7</ele>
        <time>2025-09-03T17:53:47Z</time>
      </trkpt>
      <trkpt lat="43.61892" lon="1.19069">
        <ele>225.2</ele>
        <time>2025-09-03T17:53:53Z</time>
      </trkpt>
      <trkpt lat="43.61898" lon="1.19106">
        <ele>226.5</ele>
        <time>2025-09-03T17:53:59Z</time>
      </trkpt>
      <trkpt lat="43.61909" lon="1.19114">
        <ele>227.5</ele>
        <time>2025-09-03T17:54:02Z</time>
      </trkpt>
      <trkpt lat="43.61916" lon="1.19098">
        <ele>227.5</ele>
        <time>2025-09-03T17:54:05Z</time>
      </trkpt>
      <trkpt lat="43.6199" lon="1.19154">
        <ele>236.8</ele>
        <time>2025-09-03T17:54:25Z</time>
      </trkpt>
      <trkpt lat="43.62101" lon="1.19249">
        <ele>238.4</ele>
        <time>2025-09-03T17:54:55Z</time>
      </trkpt>
      <trkpt lat="43.6211" lon="1.19245">
        <ele>238</ele>
        <time>2025-09-03T17:54:58Z</time>
      </trkpt>
      <trkpt lat="43.62247" lon="1.18938">
        <ele>241</ele>
        <time>2025-09-03T17:55:59Z</time>
      </trkpt>
      <trkpt lat="43.62261" lon="1.18926">
        <ele>241.4</ele>
        <time>2025-09-03T17:56:02Z</time>
      </trkpt>
      <trkpt lat="43.62296" lon="1.18917">
        <ele>242</ele>
        <time>2025-09-03T17:56:11Z</time>
      </trkpt>
      <trkpt lat="43.62339" lon="1.18945">
        <ele>242.2</ele>
        <time>2025-09-03T17:56:22Z</time>
      </trkpt>
      <trkpt lat="43.62379" lon="1.1895">
        <ele>242.8</ele>
        <time>2025-09-03T17:56:31Z</time>
      </trkpt>
      <trkpt lat="43.62426" lon="1.18972">
        <ele>240.7</ele>
        <time>2025-09-03T17:56:43Z</time>
      </trkpt>
      <trkpt lat="43.62461" lon="1.18999">
        <ele>239.4</ele>
        <time>2025-09-03T17:56:52Z</time>
      </trkpt>
      <trkpt lat="43.62476" lon="1.19015">
        <ele>239.5</ele>
        <time>2025-09-03T17:56:57Z</time>
      </trkpt>
      <trkpt lat="43.62506" lon="1.19058">
        <ele>239.8</ele>
        <time>2025-09-03T17:57:07Z</time>
      </trkpt>
      <trkpt lat="43.62536" lon="1.19093">
        <ele>239.7</ele>
        <time>2025-09-03T17:57:16Z</time>
      </trkpt>
      <trkpt lat="43.62576" lon="1.1913">
        <ele>239</ele>
        <time>2025-09-03T17:57:27Z</time>
      </trkpt>
      <trkpt lat="43.626" lon="1.19142">
        <ele>238.5</ele>
        <time>2025-09-03T17:57:33Z</time>
      </trkpt>
      <trkpt lat="43.6265" lon="1.19187">
        <ele>238.4</ele>
        <time>2025-09-03T17:57:47Z</time>
      </trkpt>
      <trkpt lat="43.62679" lon="1.19208">
        <ele>238</ele>
        <time>2025-09-03T17:57:55Z</time>
      </trkpt>
      <trkpt lat="43.62728" lon="1.19252">
        <ele>238</ele>
        <time>2025-09-03T17:58:08Z</time>
      </trkpt>
      <trkpt lat="43.62771" lon="1.19263">
        <ele>237.2</ele>
        <time>2025-09-03T17:58:18Z</time>
      </trkpt>
      <trkpt lat="43.62802" lon="1.1926">
        <ele>237</ele>
        <time>2025-09-03T17:58:26Z</time>
      </trkpt>
      <trkpt lat="43.62824" lon="1.19253">
        <ele>237</ele>
        <time>2025-09-03T17:58:31Z</time>
      </trkpt>
      <trkpt lat="43.62842" lon="1.19251">
        <ele>237</ele>
        <time>2025-09-03T17:58:35Z</time>
      </trkpt>
      <trkpt lat="43.62946" lon="1.19266">
        <ele>237</ele>
        <time>2025-09-03T17:59:00Z</time>
      </trkpt>
      <trkpt lat="43.63032" lon="1.19292">
        <ele>236</ele>
        <time>2025-09-03T17:59:20Z</time>
      </trkpt>
      <trkpt lat="43.63059" lon="1.19304">
        <ele>236</ele>
        <time>2025-09-03T17:59:27Z</time>
      </trkpt>
      <trkpt lat="43.63065" lon="1.19311">
        <ele>236</ele>
        <time>2025-09-03T17:59:29Z</time>
      </trkpt>
      <trkpt lat="43.63065" lon="1.19324">
        <ele>236</ele>
        <time>2025-09-03T17:59:31Z</time>
      </trkpt>
      <trkpt lat="43.63028" lon="1.19399">
        <ele>236</ele>
        <time>2025-09-03T17:59:46Z</time>
      </trkpt>
      <trkpt lat="43.63017" lon="1.1943">
        <ele>236</ele>
        <time>2025-09-03T17:59:52Z</time>
      </trkpt>
      <trkpt lat="43.63001" lon="1.19488">
        <ele>236</ele>
        <time>2025-09-03T18:00:03Z</time>
      </trkpt>
      <trkpt lat="43.62995" lon="1.19526">
        <ele>236</ele>
        <time>2025-09-03T18:00:09Z</time>
      </trkpt>
      <trkpt lat="43.62987" lon="1.19556">
        <ele>236</ele>
        <time>2025-09-03T18:00:15Z</time>
      </trkpt>
      <trkpt lat="43.62981" lon="1.19606">
        <ele>236</ele>
        <time>2025-09-03T18:00:23Z</time>
      </trkpt>
      <trkpt lat="43.62975" lon="1.19625">
        <ele>236</ele>
        <time>2025-09-03T18:00:27Z</time>
      </trkpt>
      <trkpt lat="43.62966" lon="1.1967">
        <ele>236</ele>
        <time>2025-09-03T18:00:34Z</time>
      </trkpt>
      <trkpt lat="43.62976" lon="1.19691">
        <ele>236</ele>
        <time>2025-09-03T18:00:39Z</time>
      </trkpt>
      <trkpt lat="43.62991" lon="1.19706">
        <ele>236</ele>
        <time>2025-09-03T18:00:43Z</time>
      </trkpt>
      <trkpt lat="43.63043" lon="1.19722">
        <ele>235</ele>
        <time>2025-09-03T18:00:55Z</time>
      </trkpt>
      <trkpt lat="43.63077" lon="1.19753">
        <ele>235</ele>
        <time>2025-09-03T18:01:05Z</time>
      </trkpt>
      <trkpt lat="43.63126" lon="1.19778">
        <ele>235</ele>
        <time>2025-09-03T18:01:17Z</time>
      </trkpt>
      <trkpt lat="43.63152" lon="1.19802">
        <ele>235</ele>
        <time>2025-09-03T18:01:24Z</time>
      </trkpt>
      <trkpt lat="43.63182" lon="1.19846">
        <ele>235</ele>
        <time>2025-09-03T18:01:35Z</time>
      </trkpt>
      <trkpt lat="43.63205" lon="1.1986">
        <ele>234.6</ele>
        <time>2025-09-03T18:01:41Z</time>
      </trkpt>
      <trkpt lat="43.63229" lon="1.19853">
        <ele>234</ele>
        <time>2025-09-03T18:01:46Z</time>
      </trkpt>
      <trkpt lat="43.63247" lon="1.19853">
        <ele>234</ele>
        <time>2025-09-03T18:01:51Z</time>
      </trkpt>
      <trkpt lat="43.63284" lon="1.19841">
        <ele>234</ele>
        <time>2025-09-03T18:01:59Z</time>
      </trkpt>
      <trkpt lat="43.63292" lon="1.19831">
        <ele>234</ele>
        <time>2025-09-03T18:02:02Z</time>
      </trkpt>
      <trkpt lat="43.6331" lon="1.1982">
        <ele>234</ele>
        <time>2025-09-03T18:02:07Z</time>
      </trkpt>
      <trkpt lat="43.63332" lon="1.1979">
        <ele>234</ele>
        <time>2025-09-03T18:02:14Z</time>
      </trkpt>
      <trkpt lat="43.63362" lon="1.19773">
        <ele>234</ele>
        <time>2025-09-03T18:02:21Z</time>
      </trkpt>
      <trkpt lat="43.63372" lon="1.19763">
        <ele>234</ele>
        <time>2025-09-03T18:02:24Z</time>
      </trkpt>
      <trkpt lat="43.63402" lon="1.19716">
        <ele>234</ele>
        <time>2025-09-03T18:02:35Z</time>
      </trkpt>
      <trkpt lat="43.63467" lon="1.19648">
        <ele>233</ele>
        <time>2025-09-03T18:02:54Z</time>
      </trkpt>
      <trkpt lat="43.63504" lon="1.19602">
        <ele>232.7</ele>
        <time>2025-09-03T18:03:05Z</time>
      </trkpt>
      <trkpt lat="43.63582" lon="1.19492">
        <ele>230</ele>
        <time>2025-09-03T18:03:31Z</time>
      </trkpt>
      <trkpt lat="43.63612" lon="1.19471">
        <ele>230</ele>
        <time>2025-09-03T18:03:39Z</time>
      </trkpt>
      <trkpt lat="43.63632" lon="1.19462">
        <ele>229.6</ele>
        <time>2025-09-03T18:03:44Z</time>
      </trkpt>
      <trkpt lat="43.63669" lon="1.19468">
        <ele>229.8</ele>
        <time>2025-09-03T18:03:53Z</time>
      </trkpt>
      <trkpt lat="43.63687" lon="1.1948">
        <ele>230.3</ele>
        <time>2025-09-03T18:03:58Z</time>
      </trkpt>
      <trkpt lat="43.63749" lon="1.1956">
        <ele>232.2</ele>
        <time>2025-09-03T18:04:17Z</time>
      </trkpt>
      <trkpt lat="43.63776" lon="1.19619">
        <ele>232.1</ele>
        <time>2025-09-03T18:04:29Z</time>
      </trkpt>
      <trkpt lat="43.63811" lon="1.19712">
        <ele>233</ele>
        <time>2025-09-03T18:04:47Z</time>
      </trkpt>
      <trkpt lat="43.63808" lon="1.19724">
        <ele>233</ele>
        <time>2025-09-03T18:04:49Z</time>
      </trkpt>
      <trkpt lat="43.63796" lon="1.19747">
        <ele>233</ele>
        <time>2025-09-03T18:04:54Z</time>
      </trkpt>
      <trkpt lat="43.63801" lon="1.19745">
        <ele>233</ele>
        <time>2025-09-03T18:04:55Z</time>
      </trkpt>
      <trkpt lat="43.63809" lon="1.19751">
        <ele>232.9</ele>
        <time>2025-09-03T18:04:57Z</time>
      </trkpt>
      <trkpt lat="43.63845" lon="1.19767">
        <ele>232.3</ele>
        <time>2025-09-03T18:05:06Z</time>
      </trkpt>
      <trkpt lat="43.63855" lon="1.19779">
        <ele>232.8</ele>
        <time>2025-09-03T18:05:09Z</time>
      </trkpt>
      <trkpt lat="43.63866" lon="1.19784">
        <ele>232.5</ele>
        <time>2025-09-03T18:05:12Z</time>
      </trkpt>
      <trkpt lat="43.63892" lon="1.19822">
        <ele>231.5</ele>
        <time>2025-09-03T18:05:21Z</time>
      </trkpt>
      <trkpt lat="43.63901" lon="1.19839">
        <ele>231.7</ele>
        <time>2025-09-03T18:05:24Z</time>
      </trkpt>
      <trkpt lat="43.63918" lon="1.19901">
        <ele>232.4</ele>
        <time>2025-09-03T18:05:35Z</time>
      </trkpt>
      <trkpt lat="43.63953" lon="1.19961">
        <ele>231.4</ele>
        <time>2025-09-03T18:05:48Z</time>
      </trkpt>
      <trkpt lat="43.63969" lon="1.19932">
        <ele>230.2</ele>
        <time>2025-09-03T18:05:55Z</time>
      </trkpt>
      <trkpt lat="43.64017" lon="1.19818">
        <ele>225.4</ele>
        <time>2025-09-03T18:06:17Z</time>
      </trkpt>
      <trkpt lat="43.64031" lon="1.19793">
        <ele>223.3</ele>
        <time>2025-09-03T18:06:22Z</time>
      </trkpt>
      <trkpt lat="43.64056" lon="1.19795">
        <ele>221</ele>
        <time>2025-09-03T18:06:28Z</time>
      </trkpt>
      <trkpt lat="43.64077" lon="1.19821">
        <ele>220.7</ele>
        <time>2025-09-03T18:06:35Z</time>
      </trkpt>
      <trkpt lat="43.6409" lon="1.1985">
        <ele>220.6</ele>
        <time>2025-09-03T18:06:40Z</time>
      </trkpt>
      <trkpt lat="43.64092" lon="1.19861">
        <ele>220.7</ele>
        <time>2025-09-03T18:06:42Z</time>
      </trkpt>
      <trkpt lat="43.6409" lon="1.19876">
        <ele>221.6</ele>
        <time>2025-09-03T18:06:45Z</time>
      </trkpt>
      <trkpt lat="43.641" lon="1.19903">
        <ele>221.7</ele>
        <time>2025-09-03T18:06:50Z</time>
      </trkpt>
      <trkpt lat="43.6411" lon="1.19915">
        <ele>221.1</ele>
        <time>2025-09-03T18:06:53Z</time>
      </trkpt>
      <trkpt lat="43.64118" lon="1.19963">
        <ele>220.9</ele>
        <time>2025-09-03T18:07:01Z</time>
      </trkpt>
      <trkpt lat="43.64126" lon="1.19982">
        <ele>219.3</ele>
        <time>2025-09-03T18:07:05Z</time>
      </trkpt>
      <trkpt lat="43.64126" lon="1.20013">
        <ele>218.3</ele>
        <time>2025-09-03T18:07:10Z</time>
      </trkpt>
      <trkpt lat="43.64131" lon="1.20044">
        <ele>217.8</ele>
        <time>2025-09-03T18:07:16Z</time>
      </trkpt>
      <trkpt lat="43.64132" lon="1.20085">
        <ele>218</ele>
        <time>2025-09-03T18:07:23Z</time>
      </trkpt>
      <trkpt lat="43.6414" lon="1.20131">
        <ele>217.9</ele>
        <time>2025-09-03T18:07:31Z</time>
      </trkpt>
      <trkpt lat="43.64147" lon="1.20152">
        <ele>217.8</ele>
        <time>2025-09-03T18:07:35Z</time>
      </trkpt>
      <trkpt lat="43.64146" lon="1.20183">
        <ele>218.7</ele>
        <time>2025-09-03T18:07:40Z</time>
      </trkpt>
      <trkpt lat="43.64159" lon="1.20226">
        <ele>216.8</ele>
        <time>2025-09-03T18:07:48Z</time>
      </trkpt>
      <trkpt lat="43.64155" lon="1.20242">
        <ele>217.3</ele>
        <time>2025-09-03T18:07:51Z</time>
      </trkpt>
      <trkpt lat="43.64157" lon="1.20255">
        <ele>217.2</ele>
        <time>2025-09-03T18:07:53Z</time>
      </trkpt>
      <trkpt lat="43.64167" lon="1.20263">
        <ele>216.5</ele>
        <time>2025-09-03T18:07:56Z</time>
      </trkpt>
      <trkpt lat="43.64177" lon="1.20302">
        <ele>216.9</ele>
        <time>2025-09-03T18:08:03Z</time>
      </trkpt>
      <trkpt lat="43.64185" lon="1.2031">
        <ele>216</ele>
        <time>2025-09-03T18:08:05Z</time>
      </trkpt>
      <trkpt lat="43.64195" lon="1.20309">
        <ele>214.9</ele>
        <time>2025-09-03T18:08:07Z</time>
      </trkpt>
      <trkpt lat="43.64202" lon="1.20313">
        <ele>214.3</ele>
        <time>2025-09-03T18:08:09Z</time>
      </trkpt>
      <trkpt lat="43.64207" lon="1.20324">
        <ele>213.3</ele>
        <time>2025-09-03T18:08:11Z</time>
      </trkpt>
      <trkpt lat="43.64227" lon="1.20423">
        <ele>210.3</ele>
        <time>2025-09-03T18:08:29Z</time>
      </trkpt>
      <trkpt lat="43.64236" lon="1.20503">
        <ele>210</ele>
        <time>2025-09-03T18:08:42Z</time>
      </trkpt>
      <trkpt lat="43.64242" lon="1.20533">
        <ele>208.7</ele>
        <time>2025-09-03T18:08:47Z</time>
      </trkpt>
      <trkpt lat="43.6424" lon="1.20549">
        <ele>208.9</ele>
        <time>2025-09-03T18:08:50Z</time>
      </trkpt>
      <trkpt lat="43.64266" lon="1.20643">
        <ele>207.3</ele>
        <time>2025-09-03T18:09:07Z</time>
      </trkpt>
      <trkpt lat="43.6428" lon="1.20672">
        <ele>205.8</ele>
        <time>2025-09-03T18:09:13Z</time>
      </trkpt>
      <trkpt lat="43.64282" lon="1.20746">
        <ele>204.7</ele>
        <time>2025-09-03T18:09:26Z</time>
      </trkpt>
      <trkpt lat="43.64291" lon="1.20804">
        <ele>204.5</ele>
        <time>2025-09-03T18:09:36Z</time>
      </trkpt>
      <trkpt lat="43.643" lon="1.20819">
        <ele>204</ele>
        <time>2025-09-03T18:09:39Z</time>
      </trkpt>
      <trkpt lat="43.64306" lon="1.20835">
        <ele>204</ele>
        <time>2025-09-03T18:09:42Z</time>
      </trkpt>
      <trkpt lat="43.64306" lon="1.20879">
        <ele>204</ele>
        <time>2025-09-03T18:09:49Z</time>
      </trkpt>
      <trkpt lat="43.64304" lon="1.20892">
        <ele>204.3</ele>
        <time>2025-09-03T18:09:52Z</time>
      </trkpt>
      <trkpt lat="43.64335" lon="1.20975">
        <ele>203.9</ele>
        <time>2025-09-03T18:10:07Z</time>
      </trkpt>
      <trkpt lat="43.64338" lon="1.2101">
        <ele>204.1</ele>
        <time>2025-09-03T18:10:13Z</time>
      </trkpt>
      <trkpt lat="43.64347" lon="1.21028">
        <ele>204</ele>
        <time>2025-09-03T18:10:17Z</time>
      </trkpt>
      <trkpt lat="43.64354" lon="1.21058">
        <ele>204.1</ele>
        <time>2025-09-03T18:10:22Z</time>
      </trkpt>
      <trkpt lat="43.64379" lon="1.21135">
        <ele>205.1</ele>
        <time>2025-09-03T18:10:37Z</time>
      </trkpt>
      <trkpt lat="43.64405" lon="1.2117">
        <ele>204</ele>
        <time>2025-09-03T18:10:45Z</time>
      </trkpt>
      <trkpt lat="43.64428" lon="1.21194">
        <ele>203.3</ele>
        <time>2025-09-03T18:10:52Z</time>
      </trkpt>
      <trkpt lat="43.64457" lon="1.21207">
        <ele>200.3</ele>
        <time>2025-09-03T18:10:59Z</time>
      </trkpt>
      <trkpt lat="43.6447" lon="1.2122">
        <ele>199.2</ele>
        <time>2025-09-03T18:11:03Z</time>
      </trkpt>
      <trkpt lat="43.64475" lon="1.21231">
        <ele>199.7</ele>
        <time>2025-09-03T18:11:05Z</time>
      </trkpt>
      <trkpt lat="43.64452" lon="1.21298">
        <ele>212.2</ele>
        <time>2025-09-03T18:11:18Z</time>
      </trkpt>
      <trkpt lat="43.64377" lon="1.21474">
        <ele>217</ele>
        <time>2025-09-03T18:11:52Z</time>
      </trkpt>
      <trkpt lat="43.64395" lon="1.21496">
        <ele>216.7</ele>
        <time>2025-09-03T18:11:58Z</time>
      </trkpt>
      <trkpt lat="43.64409" lon="1.21506">
        <ele>217.1</ele>
        <time>2025-09-03T18:12:01Z</time>
      </trkpt>
      <trkpt lat="43.64453" lon="1.21505">
        <ele>217.8</ele>
        <time>2025-09-03T18:12:12Z</time>
      </trkpt>
      <trkpt lat="43.64504" lon="1.21513">
        <ele>216.4</ele>
        <time>2025-09-03T18:12:24Z</time>
      </trkpt>
      <trkpt lat="43.64534" lon="1.21506">
        <ele>215.8</ele>
        <time>2025-09-03T18:12:31Z</time>
      </trkpt>
      <trkpt lat="43.64561" lon="1.21493">
        <ele>216.3</ele>
        <time>2025-09-03T18:12:37Z</time>
      </trkpt>
      <trkpt lat="43.64574" lon="1.2149">
        <ele>216.4</ele>
        <time>2025-09-03T18:12:40Z</time>
      </trkpt>
      <trkpt lat="43.64621" lon="1.21495">
        <ele>216.8</ele>
        <time>2025-09-03T18:12:51Z</time>
      </trkpt>
      <trkpt lat="43.64642" lon="1.21492">
        <ele>216.7</ele>
        <time>2025-09-03T18:12:56Z</time>
      </trkpt>
      <trkpt lat="43.64677" lon="1.21471">
        <ele>216.7</ele>
        <time>2025-09-03T18:13:05Z</time>
      </trkpt>
      <trkpt lat="43.64691" lon="1.21474">
        <ele>217.8</ele>
        <time>2025-09-03T18:13:09Z</time>
      </trkpt>
      <trkpt lat="43.64707" lon="1.21451">
        <ele>217.7</ele>
        <time>2025-09-03T18:13:14Z</time>
      </trkpt>
      <trkpt lat="43.64714" lon="1.21457">
        <ele>218.7</ele>
        <time>2025-09-03T18:13:16Z</time>
      </trkpt>
      <trkpt lat="43.64756" lon="1.21445">
        <ele>221</ele>
        <time>2025-09-03T18:13:26Z</time>
      </trkpt>
      <trkpt lat="43.648" lon="1.21451">
        <ele>220.2</ele>
        <time>2025-09-03T18:13:36Z</time>
      </trkpt>
      <trkpt lat="43.64805" lon="1.21447">
        <ele>220</ele>
        <time>2025-09-03T18:13:38Z</time>
      </trkpt>
      <trkpt lat="43.64816" lon="1.21449">
        <ele>219.9</ele>
        <time>2025-09-03T18:13:40Z</time>
      </trkpt>
      <trkpt lat="43.64841" lon="1.21444">
        <ele>219.7</ele>
        <time>2025-09-03T18:13:46Z</time>
      </trkpt>
      <trkpt lat="43.64885" lon="1.21456">
        <ele>217.3</ele>
        <time>2025-09-03T18:13:57Z</time>
      </trkpt>
      <trkpt lat="43.64914" lon="1.21474">
        <ele>215</ele>
        <time>2025-09-03T18:14:04Z</time>
      </trkpt>
      <trkpt lat="43.6493" lon="1.21491">
        <ele>214</ele>
        <time>2025-09-03T18:14:09Z</time>
      </trkpt>
      <trkpt lat="43.64985" lon="1.21629">
        <ele>204.5</ele>
        <time>2025-09-03T18:14:35Z</time>
      </trkpt>
      <trkpt lat="43.64985" lon="1.21642">
        <ele>203.9</ele>
        <time>2025-09-03T18:14:38Z</time>
      </trkpt>
      <trkpt lat="43.64994" lon="1.21654">
        <ele>203.6</ele>
        <time>2025-09-03T18:14:40Z</time>
      </trkpt>
      <trkpt lat="43.64998" lon="1.21672">
        <ele>203.1</ele>
        <time>2025-09-03T18:14:44Z</time>
      </trkpt>
      <trkpt lat="43.65008" lon="1.21689">
        <ele>202.8</ele>
        <time>2025-09-03T18:14:47Z</time>
      </trkpt>
      <trkpt lat="43.65077" lon="1.21876">
        <ele>198.8</ele>
        <time>2025-09-03T18:15:23Z</time>
      </trkpt>
      <trkpt lat="43.65163" lon="1.22096">
        <ele>194.1</ele>
        <time>2025-09-03T18:16:05Z</time>
      </trkpt>
      <trkpt lat="43.6523" lon="1.22287">
        <ele>193.5</ele>
        <time>2025-09-03T18:16:41Z</time>
      </trkpt>
      <trkpt lat="43.65236" lon="1.2231">
        <ele>193</ele>
        <time>2025-09-03T18:16:45Z</time>
      </trkpt>
      <trkpt lat="43.65266" lon="1.22375">
        <ele>193</ele>
        <time>2025-09-03T18:16:58Z</time>
      </trkpt>
      <trkpt lat="43.65284" lon="1.22424">
        <ele>192.8</ele>
        <time>2025-09-03T18:17:07Z</time>
      </trkpt>
      <trkpt lat="43.65299" lon="1.22454">
        <ele>192.2</ele>
        <time>2025-09-03T18:17:14Z</time>
      </trkpt>
      <trkpt lat="43.65407" lon="1.22706">
        <ele>190.3</ele>
        <time>2025-09-03T18:18:03Z</time>
      </trkpt>
      <trkpt lat="43.65416" lon="1.22719">
        <ele>190</ele>
        <time>2025-09-03T18:18:06Z</time>
      </trkpt>
      <trkpt lat="43.65425" lon="1.22749">
        <ele>189.7</ele>
        <time>2025-09-03T18:18:12Z</time>
      </trkpt>
      <trkpt lat="43.65462" lon="1.22821">
        <ele>188.4</ele>
        <time>2025-09-03T18:18:26Z</time>
      </trkpt>
      <trkpt lat="43.65497" lon="1.22907">
        <ele>187.1</ele>
        <time>2025-09-03T18:18:43Z</time>
      </trkpt>
      <trkpt lat="43.65554" lon="1.23034">
        <ele>188</ele>
        <time>2025-09-03T18:19:08Z</time>
      </trkpt>
      <trkpt lat="43.65588" lon="1.23122">
        <ele>188.5</ele>
        <time>2025-09-03T18:19:25Z</time>
      </trkpt>
      <trkpt lat="43.65593" lon="1.23128">
        <ele>188.7</ele>
        <time>2025-09-03T18:19:27Z</time>
      </trkpt>
      <trkpt lat="43.65608" lon="1.23162">
        <ele>189</ele>
        <time>2025-09-03T18:19:34Z</time>
      </trkpt>
      <trkpt lat="43.65622" lon="1.23201">
        <ele>189</ele>
        <time>2025-09-03T18:19:41Z</time>
      </trkpt>
      <trkpt lat="43.65654" lon="1.23262">
        <ele>189</ele>
        <time>2025-09-03T18:19:54Z</time>
      </trkpt>
      <trkpt lat="43.65673" lon="1.23316">
        <ele>189</ele>
        <time>2025-09-03T18:20:04Z</time>
      </trkpt>
      <trkpt lat="43.65768" lon="1.23443">
        <ele>188.4</ele>
        <time>2025-09-03T18:20:35Z</time>
      </trkpt>
      <trkpt lat="43.65821" lon="1.23531">
        <ele>188</ele>
        <time>2025-09-03T18:20:54Z</time>
      </trkpt>
      <trkpt lat="43.65831" lon="1.23539">
        <ele>188</ele>
        <time>2025-09-03T18:20:57Z</time>
      </trkpt>
      <trkpt lat="43.65861" lon="1.2358">
        <ele>188</ele>
        <time>2025-09-03T18:21:07Z</time>
      </trkpt>
      <trkpt lat="43.65902" lon="1.23619">
        <ele>187.9</ele>
        <time>2025-09-03T18:21:18Z</time>
      </trkpt>
      <trkpt lat="43.65937" lon="1.23639">
        <ele>187</ele>
        <time>2025-09-03T18:21:27Z</time>
      </trkpt>
      <trkpt lat="43.65952" lon="1.2366">
        <ele>186.7</ele>
        <time>2025-09-03T18:21:32Z</time>
      </trkpt>
      <trkpt lat="43.65976" lon="1.23684">
        <ele>186</ele>
        <time>2025-09-03T18:21:39Z</time>
      </trkpt>
      <trkpt lat="43.65992" lon="1.23708">
        <ele>186</ele>
        <time>2025-09-03T18:21:44Z</time>
      </trkpt>
      <trkpt lat="43.66021" lon="1.23738">
        <ele>186.9</ele>
        <time>2025-09-03T18:21:53Z</time>
      </trkpt>
      <trkpt lat="43.66074" lon="1.23776">
        <ele>187.3</ele>
        <time>2025-09-03T18:22:07Z</time>
      </trkpt>
      <trkpt lat="43.6611" lon="1.23781">
        <ele>187</ele>
        <time>2025-09-03T18:22:15Z</time>
      </trkpt>
      <trkpt lat="43.66129" lon="1.23779">
        <ele>187</ele>
        <time>2025-09-03T18:22:20Z</time>
      </trkpt>
      <trkpt lat="43.66145" lon="1.23773">
        <ele>186.9</ele>
        <time>2025-09-03T18:22:24Z</time>
      </trkpt>
      <trkpt lat="43.6616" lon="1.23784">
        <ele>187</ele>
        <time>2025-09-03T18:22:28Z</time>
      </trkpt>
      <trkpt lat="43.66183" lon="1.23824">
        <ele>187</ele>
        <time>2025-09-03T18:22:36Z</time>
      </trkpt>
      <trkpt lat="43.66198" lon="1.23867">
        <ele>188</ele>
        <time>2025-09-03T18:22:44Z</time>
      </trkpt>
      <trkpt lat="43.66202" lon="1.23873">
        <ele>188</ele>
        <time>2025-09-03T18:22:46Z</time>
      </trkpt>
      <trkpt lat="43.66206" lon="1.23878">
        <ele>188</ele>
        <time>2025-09-03T18:22:47Z</time>
      </trkpt>
      <trkpt lat="43.66227" lon="1.23891">
        <ele>188</ele>
        <time>2025-09-03T18:22:52Z</time>
      </trkpt>
      <trkpt lat="43.66246" lon="1.23899">
        <ele>188</ele>
        <time>2025-09-03T18:22:57Z</time>
      </trkpt>
      <trkpt lat="43.66276" lon="1.23928">
        <ele>188</ele>
        <time>2025-09-03T18:23:05Z</time>
      </trkpt>
      <trkpt lat="43.66334" lon="1.2402">
        <ele>188</ele>
        <time>2025-09-03T18:23:26Z</time>
      </trkpt>
      <trkpt lat="43.66359" lon="1.24039">
        <ele>188</ele>
        <time>2025-09-03T18:23:33Z</time>
      </trkpt>
      <trkpt lat="43.66392" lon="1.24079">
        <ele>188</ele>
        <time>2025-09-03T18:23:43Z</time>
      </trkpt>
      <trkpt lat="43.66435" lon="1.24143">
        <ele>188</ele>
        <time>2025-09-03T18:23:58Z</time>
      </trkpt>
      <trkpt lat="43.6645" lon="1.24168">
        <ele>188</ele>
        <time>2025-09-03T18:24:03Z</time>
      </trkpt>
      <trkpt lat="43.66468" lon="1.2421">
        <ele>188</ele>
        <time>2025-09-03T18:24:11Z</time>
      </trkpt>
      <trkpt lat="43.6649" lon="1.24246">
        <ele>187.9</ele>
        <time>2025-09-03T18:24:19Z</time>
      </trkpt>
      <trkpt lat="43.66494" lon="1.24261">
        <ele>187.7</ele>
        <time>2025-09-03T18:24:22Z</time>
      </trkpt>
      <trkpt lat="43.66514" lon="1.24308">
        <ele>187.5</ele>
        <time>2025-09-03T18:24:31Z</time>
      </trkpt>
      <trkpt lat="43.66554" lon="1.2443">
        <ele>187</ele>
        <time>2025-09-03T18:24:54Z</time>
      </trkpt>
      <trkpt lat="43.66557" lon="1.24446">
        <ele>187</ele>
        <time>2025-09-03T18:24:57Z</time>
      </trkpt>
      <trkpt lat="43.66575" lon="1.24479">
        <ele>187</ele>
        <time>2025-09-03T18:25:04Z</time>
      </trkpt>
      <trkpt lat="43.66594" lon="1.24561">
        <ele>187</ele>
        <time>2025-09-03T18:25:18Z</time>
      </trkpt>
      <trkpt lat="43.66613" lon="1.24627">
        <ele>187</ele>
        <time>2025-09-03T18:25:30Z</time>
      </trkpt>
      <trkpt lat="43.66648" lon="1.24709">
        <ele>187.2</ele>
        <time>2025-09-03T18:25:46Z</time>
      </trkpt>
      <trkpt lat="43.66691" lon="1.24772">
        <ele>187.2</ele>
        <time>2025-09-03T18:26:01Z</time>
      </trkpt>
      <trkpt lat="43.6674" lon="1.24851">
        <ele>187.6</ele>
        <time>2025-09-03T18:26:19Z</time>
      </trkpt>
      <trkpt lat="43.66763" lon="1.24897">
        <ele>187.5</ele>
        <time>2025-09-03T18:26:28Z</time>
      </trkpt>
      <trkpt lat="43.66769" lon="1.24915">
        <ele>187.7</ele>
        <time>2025-09-03T18:26:31Z</time>
      </trkpt>
      <trkpt lat="43.66796" lon="1.24965">
        <ele>187.7</ele>
        <time>2025-09-03T18:26:42Z</time>
      </trkpt>
      <trkpt lat="43.66805" lon="1.24989">
        <ele>187.4</ele>
        <time>2025-09-03T18:26:46Z</time>
      </trkpt>
      <trkpt lat="43.66863" lon="1.25084">
        <ele>187.1</ele>
        <time>2025-09-03T18:27:07Z</time>
      </trkpt>
      <trkpt lat="43.66893" lon="1.25146">
        <ele>187.1</ele>
        <time>2025-09-03T18:27:20Z</time>
      </trkpt>
      <trkpt lat="43.66895" lon="1.25184">
        <ele>186.6</ele>
        <time>2025-09-03T18:27:27Z</time>
      </trkpt>
      <trkpt lat="43.66919" lon="1.25254">
        <ele>186.1</ele>
        <time>2025-09-03T18:27:40Z</time>
      </trkpt>
      <trkpt lat="43.66936" lon="1.25354">
        <ele>185</ele>
        <time>2025-09-03T18:27:57Z</time>
      </trkpt>
      <trkpt lat="43.66958" lon="1.25418">
        <ele>184</ele>
        <time>2025-09-03T18:28:09Z</time>
      </trkpt>
      <trkpt lat="43.66964" lon="1.25447">
        <ele>183.6</ele>
        <time>2025-09-03T18:28:14Z</time>
      </trkpt>
      <trkpt lat="43.66964" lon="1.25511">
        <ele>182</ele>
        <time>2025-09-03T18:28:25Z</time>
      </trkpt>
      <trkpt lat="43.66969" lon="1.2553">
        <ele>182</ele>
        <time>2025-09-03T18:28:28Z</time>
      </trkpt>
      <trkpt lat="43.66978" lon="1.25596">
        <ele>182</ele>
        <time>2025-09-03T18:28:40Z</time>
      </trkpt>
      <trkpt lat="43.66984" lon="1.25707">
        <ele>181.8</ele>
        <time>2025-09-03T18:28:58Z</time>
      </trkpt>
      <trkpt lat="43.67006" lon="1.25842">
        <ele>181</ele>
        <time>2025-09-03T18:29:22Z</time>
      </trkpt>
      <trkpt lat="43.67018" lon="1.2588">
        <ele>181</ele>
        <time>2025-09-03T18:29:29Z</time>
      </trkpt>
      <trkpt lat="43.67007" lon="1.25924">
        <ele>181.7</ele>
        <time>2025-09-03T18:29:37Z</time>
      </trkpt>
      <trkpt lat="43.66978" lon="1.2597">
        <ele>182</ele>
        <time>2025-09-03T18:29:47Z</time>
      </trkpt>
      <trkpt lat="43.66959" lon="1.2602">
        <ele>182</ele>
        <time>2025-09-03T18:29:56Z</time>
      </trkpt>
      <trkpt lat="43.66951" lon="1.2603">
        <ele>182</ele>
        <time>2025-09-03T18:29:59Z</time>
      </trkpt>
      <trkpt lat="43.66921" lon="1.26088">
        <ele>182</ele>
        <time>2025-09-03T18:30:11Z</time>
      </trkpt>
      <trkpt lat="43.66876" lon="1.26186">
        <ele>182</ele>
        <time>2025-09-03T18:30:31Z</time>
      </trkpt>
      <trkpt lat="43.66806" lon="1.26296">
        <ele>182</ele>
        <time>2025-09-03T18:30:55Z</time>
      </trkpt>
      <trkpt lat="43.66791" lon="1.26315">
        <ele>182</ele>
        <time>2025-09-03T18:31:00Z</time>
      </trkpt>
      <trkpt lat="43.66788" lon="1.26332">
        <ele>182</ele>
        <time>2025-09-03T18:31:03Z</time>
      </trkpt>
      <trkpt lat="43.66764" lon="1.2637">
        <ele>182.2</ele>
        <time>2025-09-03T18:31:12Z</time>
      </trkpt>
      <trkpt lat="43.66727" lon="1.26448">
        <ele>182.8</ele>
        <time>2025-09-03T18:31:27Z</time>
      </trkpt>
      <trkpt lat="43.66713" lon="1.2647">
        <ele>183</ele>
        <time>2025-09-03T18:31:32Z</time>
      </trkpt>
      <trkpt lat="43.66705" lon="1.26489">
        <ele>182.8</ele>
        <time>2025-09-03T18:31:36Z</time>
      </trkpt>
      <trkpt lat="43.66701" lon="1.26508">
        <ele>182.8</ele>
        <time>2025-09-03T18:31:39Z</time>
      </trkpt>
      <trkpt lat="43.66683" lon="1.26542">
        <ele>182.7</ele>
        <time>2025-09-03T18:31:47Z</time>
      </trkpt>
      <trkpt lat="43.66671" lon="1.26574">
        <ele>182.3</ele>
        <time>2025-09-03T18:31:53Z</time>
      </trkpt>
      <trkpt lat="43.66644" lon="1.26616">
        <ele>182</ele>
        <time>2025-09-03T18:32:02Z</time>
      </trkpt>
      <trkpt lat="43.66589" lon="1.26725">
        <ele>182.8</ele>
        <time>2025-09-03T18:32:25Z</time>
      </trkpt>
      <trkpt lat="43.66536" lon="1.26797">
        <ele>183</ele>
        <time>2025-09-03T18:32:42Z</time>
      </trkpt>
      <trkpt lat="43.66532" lon="1.26834">
        <ele>183</ele>
        <time>2025-09-03T18:32:48Z</time>
      </trkpt>
      <trkpt lat="43.66532" lon="1.27012">
        <ele>182.5</ele>
        <time>2025-09-03T18:33:18Z</time>
      </trkpt>
      <trkpt lat="43.66534" lon="1.27024">
        <ele>182.1</ele>
        <time>2025-09-03T18:33:20Z</time>
      </trkpt>
      <trkpt lat="43.6654" lon="1.2703">
        <ele>182</ele>
        <time>2025-09-03T18:33:22Z</time>
      </trkpt>
      <trkpt lat="43.66462" lon="1.2706">
        <ele>182</ele>
        <time>2025-09-03T18:33:41Z</time>
      </trkpt>
      <trkpt lat="43.66456" lon="1.27065">
        <ele>182</ele>
        <time>2025-09-03T18:33:43Z</time>
      </trkpt>
      <trkpt lat="43.66435" lon="1.27074">
        <ele>182</ele>
        <time>2025-09-03T18:33:48Z</time>
      </trkpt>
      <trkpt lat="43.66288" lon="1.27073">
        <ele>182</ele>
        <time>2025-09-03T18:34:22Z</time>
      </trkpt>
      <trkpt lat="43.6623" lon="1.27067">
        <ele>182.4</ele>
        <time>2025-09-03T18:34:36Z</time>
      </trkpt>
      <trkpt lat="43.66225" lon="1.27061">
        <ele>182.7</ele>
        <time>2025-09-03T18:34:37Z</time>
      </trkpt>
      <trkpt lat="43.66218" lon="1.27044">
        <ele>182.8</ele>
        <time>2025-09-03T18:34:41Z</time>
      </trkpt>
      <trkpt lat="43.66149" lon="1.26914">
        <ele>182</ele>
        <time>2025-09-03T18:35:08Z</time>
      </trkpt>
      <trkpt lat="43.66111" lon="1.26854">
        <ele>182</ele>
        <time>2025-09-03T18:35:21Z</time>
      </trkpt>
      <trkpt lat="43.66068" lon="1.26769">
        <ele>182</ele>
        <time>2025-09-03T18:35:39Z</time>
      </trkpt>
      <trkpt lat="43.66038" lon="1.2672">
        <ele>182</ele>
        <time>2025-09-03T18:35:50Z</time>
      </trkpt>
      <trkpt lat="43.66021" lon="1.26681">
        <ele>182</ele>
        <time>2025-09-03T18:35:57Z</time>
      </trkpt>
      <trkpt lat="43.66013" lon="1.26677">
        <ele>182</ele>
        <time>2025-09-03T18:35:59Z</time>
      </trkpt>
      <trkpt lat="43.66" lon="1.26683">
        <ele>182</ele>
        <time>2025-09-03T18:36:02Z</time>
      </trkpt>
      <trkpt lat="43.65919" lon="1.26765">
        <ele>182</ele>
        <time>2025-09-03T18:36:26Z</time>
      </trkpt>
      <trkpt lat="43.65917" lon="1.2678">
        <ele>182</ele>
        <time>2025-09-03T18:36:29Z</time>
      </trkpt>
      <trkpt lat="43.65891" lon="1.26874">
        <ele>181</ele>
        <time>2025-09-03T18:36:46Z</time>
      </trkpt>
      <trkpt lat="43.65891" lon="1.26917">
        <ele>181</ele>
        <time>2025-09-03T18:36:53Z</time>
      </trkpt>
      <trkpt lat="43.65884" lon="1.26951">
        <ele>181</ele>
        <time>2025-09-03T18:36:59Z</time>
      </trkpt>
      <trkpt lat="43.65859" lon="1.27014">
        <ele>181</ele>
        <time>2025-09-03T18:37:11Z</time>
      </trkpt>
      <trkpt lat="43.65854" lon="1.27033">
        <ele>181.1</ele>
        <time>2025-09-03T18:37:14Z</time>
      </trkpt>
      <trkpt lat="43.65843" lon="1.27047">
        <ele>180.8</ele>
        <time>2025-09-03T18:37:18Z</time>
      </trkpt>
      <trkpt lat="43.65834" lon="1.27075">
        <ele>180</ele>
        <time>2025-09-03T18:37:23Z</time>
      </trkpt>
      <trkpt lat="43.65827" lon="1.27122">
        <ele>180.2</ele>
        <time>2025-09-03T18:37:31Z</time>
      </trkpt>
      <trkpt lat="43.65825" lon="1.27161">
        <ele>180.9</ele>
        <time>2025-09-03T18:37:38Z</time>
      </trkpt>
      <trkpt lat="43.6577" lon="1.27382">
        <ele>179.8</ele>
        <time>2025-09-03T18:38:17Z</time>
      </trkpt>
      <trkpt lat="43.65728" lon="1.27574">
        <ele>176.4</ele>
        <time>2025-09-03T18:38:51Z</time>
      </trkpt>
      <trkpt lat="43.65718" lon="1.27613">
        <ele>173.7</ele>
        <time>2025-09-03T18:38:58Z</time>
      </trkpt>
      <trkpt lat="43.65697" lon="1.27633">
        <ele>172.9</ele>
        <time>2025-09-03T18:39:04Z</time>
      </trkpt>
      <trkpt lat="43.65658" lon="1.27555">
        <ele>173.3</ele>
        <time>2025-09-03T18:39:20Z</time>
      </trkpt>
      <trkpt lat="43.65637" lon="1.27462">
        <ele>173.8</ele>
        <time>2025-09-03T18:39:36Z</time>
      </trkpt>
      <trkpt lat="43.65575" lon="1.27378">
        <ele>175.4</ele>
        <time>2025-09-03T18:39:57Z</time>
      </trkpt>
      <trkpt lat="43.6556" lon="1.27346">
        <ele>175</ele>
        <time>2025-09-03T18:40:03Z</time>
      </trkpt>
      <trkpt lat="43.65551" lon="1.27314">
        <ele>175</ele>
        <time>2025-09-03T18:40:09Z</time>
      </trkpt>
      <trkpt lat="43.65542" lon="1.27296">
        <ele>175.4</ele>
        <time>2025-09-03T18:40:13Z</time>
      </trkpt>
      <trkpt lat="43.65517" lon="1.27271">
        <ele>175.7</ele>
        <time>2025-09-03T18:40:20Z</time>
      </trkpt>
      <trkpt lat="43.6545" lon="1.27225">
        <ele>175.1</ele>
        <time>2025-09-03T18:40:37Z</time>
      </trkpt>
      <trkpt lat="43.65446" lon="1.272">
        <ele>175.8</ele>
        <time>2025-09-03T18:40:42Z</time>
      </trkpt>
      <trkpt lat="43.65449" lon="1.27153">
        <ele>176.2</ele>
        <time>2025-09-03T18:40:50Z</time>
      </trkpt>
      <trkpt lat="43.65463" lon="1.27029">
        <ele>181.3</ele>
        <time>2025-09-03T18:41:11Z</time>
      </trkpt>
      <trkpt lat="43.65451" lon="1.26931">
        <ele>182.2</ele>
        <time>2025-09-03T18:41:28Z</time>
      </trkpt>
      <trkpt lat="43.65432" lon="1.26894">
        <ele>182.5</ele>
        <time>2025-09-03T18:41:35Z</time>
      </trkpt>
      <trkpt lat="43.65388" lon="1.26822">
        <ele>182</ele>
        <time>2025-09-03T18:41:51Z</time>
      </trkpt>
      <trkpt lat="43.65374" lon="1.26768">
        <ele>181.6</ele>
        <time>2025-09-03T18:42:01Z</time>
      </trkpt>
      <trkpt lat="43.65365" lon="1.26716">
        <ele>182.1</ele>
        <time>2025-09-03T18:42:10Z</time>
      </trkpt>
      <trkpt lat="43.65367" lon="1.26664">
        <ele>182.2</ele>
        <time>2025-09-03T18:42:19Z</time>
      </trkpt>
      <trkpt lat="43.65365" lon="1.26608">
        <ele>182</ele>
        <time>2025-09-03T18:42:28Z</time>
      </trkpt>
      <trkpt lat="43.65345" lon="1.26511">
        <ele>182</ele>
        <time>2025-09-03T18:42:45Z</time>
      </trkpt>
      <trkpt lat="43.65344" lon="1.26449">
        <ele>182.3</ele>
        <time>2025-09-03T18:42:56Z</time>
      </trkpt>
      <trkpt lat="43.65365" lon="1.26282">
        <ele>183</ele>
        <time>2025-09-03T18:43:24Z</time>
      </trkpt>
      <trkpt lat="43.65391" lon="1.26162">
        <ele>183</ele>
        <time>2025-09-03T18:43:46Z</time>
      </trkpt>
      <trkpt lat="43.65394" lon="1.26134">
        <ele>183</ele>
        <time>2025-09-03T18:43:50Z</time>
      </trkpt>
      <trkpt lat="43.65378" lon="1.26116">
        <ele>183</ele>
        <time>2025-09-03T18:43:55Z</time>
      </trkpt>
      <trkpt lat="43.65334" lon="1.26093">
        <ele>183</ele>
        <time>2025-09-03T18:44:06Z</time>
      </trkpt>
      <trkpt lat="43.65285" lon="1.26038">
        <ele>183</ele>
        <time>2025-09-03T18:44:21Z</time>
      </trkpt>
      <trkpt lat="43.65213" lon="1.25986">
        <ele>183</ele>
        <time>2025-09-03T18:44:40Z</time>
      </trkpt>
      <trkpt lat="43.65146" lon="1.25942">
        <ele>184</ele>
        <time>2025-09-03T18:44:57Z</time>
      </trkpt>
      <trkpt lat="43.65063" lon="1.25899">
        <ele>184</ele>
        <time>2025-09-03T18:45:18Z</time>
      </trkpt>
      <trkpt lat="43.64981" lon="1.25868">
        <ele>184.7</ele>
        <time>2025-09-03T18:45:38Z</time>
      </trkpt>
      <trkpt lat="43.6496" lon="1.25843">
        <ele>185</ele>
        <time>2025-09-03T18:45:44Z</time>
      </trkpt>
      <trkpt lat="43.64939" lon="1.25825">
        <ele>184.8</ele>
        <time>2025-09-03T18:45:50Z</time>
      </trkpt>
      <trkpt lat="43.64894" lon="1.25825">
        <ele>184</ele>
        <time>2025-09-03T18:46:01Z</time>
      </trkpt>
      <trkpt lat="43.64823" lon="1.25857">
        <ele>184</ele>
        <time>2025-09-03T18:46:18Z</time>
      </trkpt>
      <trkpt lat="43.64786" lon="1.25853">
        <ele>184.7</ele>
        <time>2025-09-03T18:46:27Z</time>
      </trkpt>
      <trkpt lat="43.64769" lon="1.25869">
        <ele>185.2</ele>
        <time>2025-09-03T18:46:31Z</time>
      </trkpt>
      <trkpt lat="43.64751" lon="1.25864">
        <ele>185.9</ele>
        <time>2025-09-03T18:46:36Z</time>
      </trkpt>
      <trkpt lat="43.64683" lon="1.2575">
        <ele>186.6</ele>
        <time>2025-09-03T18:47:01Z</time>
      </trkpt>
      <trkpt lat="43.64675" lon="1.25727">
        <ele>186.1</ele>
        <time>2025-09-03T18:47:05Z</time>
      </trkpt>
      <trkpt lat="43.64668" lon="1.25719">
        <ele>186</ele>
        <time>2025-09-03T18:47:07Z</time>
      </trkpt>
      <trkpt lat="43.64659" lon="1.25722">
        <ele>186</ele>
        <time>2025-09-03T18:47:09Z</time>
      </trkpt>
      <trkpt lat="43.64594" lon="1.26306">
        <ele>186</ele>
        <time>2025-09-03T18:48:49Z</time>
      </trkpt>
      <trkpt lat="43.64585" lon="1.26308">
        <ele>186</ele>
        <time>2025-09-03T18:48:51Z</time>
      </trkpt>
      <trkpt lat="43.64577" lon="1.26313">
        <ele>186</ele>
        <time>2025-09-03T18:48:53Z</time>
      </trkpt>
      <trkpt lat="43.64549" lon="1.26364">
        <ele>186</ele>
        <time>2025-09-03T18:49:04Z</time>
      </trkpt>
      <trkpt lat="43.64521" lon="1.26383">
        <ele>185.2</ele>
        <time>2025-09-03T18:49:11Z</time>
      </trkpt>
      <trkpt lat="43.64477" lon="1.26365">
        <ele>185</ele>
        <time>2025-09-03T18:49:22Z</time>
      </trkpt>
      <trkpt lat="43.64419" lon="1.2633">
        <ele>184.1</ele>
        <time>2025-09-03T18:49:37Z</time>
      </trkpt>
      <trkpt lat="43.64394" lon="1.26311">
        <ele>184</ele>
        <time>2025-09-03T18:49:44Z</time>
      </trkpt>
      <trkpt lat="43.64377" lon="1.26308">
        <ele>184</ele>
        <time>2025-09-03T18:49:48Z</time>
      </trkpt>
      <trkpt lat="43.64295" lon="1.26315">
        <ele>185</ele>
        <time>2025-09-03T18:50:07Z</time>
      </trkpt>
      <trkpt lat="43.64263" lon="1.26288">
        <ele>185</ele>
        <time>2025-09-03T18:50:16Z</time>
      </trkpt>
      <trkpt lat="43.64226" lon="1.2627">
        <ele>185</ele>
        <time>2025-09-03T18:50:25Z</time>
      </trkpt>
      <trkpt lat="43.64181" lon="1.26234">
        <ele>185.3</ele>
        <time>2025-09-03T18:50:37Z</time>
      </trkpt>
      <trkpt lat="43.64132" lon="1.26213">
        <ele>185</ele>
        <time>2025-09-03T18:50:49Z</time>
      </trkpt>
      <trkpt lat="43.64109" lon="1.26154">
        <ele>185.1</ele>
        <time>2025-09-03T18:51:00Z</time>
      </trkpt>
      <trkpt lat="43.64105" lon="1.26119">
        <ele>185.2</ele>
        <time>2025-09-03T18:51:06Z</time>
      </trkpt>
      <trkpt lat="43.64064" lon="1.26046">
        <ele>186</ele>
        <time>2025-09-03T18:51:22Z</time>
      </trkpt>
      <trkpt lat="43.63962" lon="1.25881">
        <ele>185.8</ele>
        <time>2025-09-03T18:51:58Z</time>
      </trkpt>
      <trkpt lat="43.63923" lon="1.25671">
        <ele>186</ele>
        <time>2025-09-03T18:52:35Z</time>
      </trkpt>
      <trkpt lat="43.63916" lon="1.25606">
        <ele>186</ele>
        <time>2025-09-03T18:52:46Z</time>
      </trkpt>
      <trkpt lat="43.63907" lon="1.2557">
        <ele>186</ele>
        <time>2025-09-03T18:52:53Z</time>
      </trkpt>
      <trkpt lat="43.63912" lon="1.25517">
        <ele>186</ele>
        <time>2025-09-03T18:53:02Z</time>
      </trkpt>
      <trkpt lat="43.63919" lon="1.25376">
        <ele>185.9</ele>
        <time>2025-09-03T18:53:26Z</time>
      </trkpt>
      <trkpt lat="43.63916" lon="1.25214">
        <ele>187</ele>
        <time>2025-09-03T18:53:53Z</time>
      </trkpt>
      <trkpt lat="43.63909" lon="1.25186">
        <ele>187</ele>
        <time>2025-09-03T18:53:58Z</time>
      </trkpt>
      <trkpt lat="43.63873" lon="1.25108">
        <ele>187.6</ele>
        <time>2025-09-03T18:54:14Z</time>
      </trkpt>
      <trkpt lat="43.63835" lon="1.25061">
        <ele>188</ele>
        <time>2025-09-03T18:54:25Z</time>
      </trkpt>
      <trkpt lat="43.6382" lon="1.25032">
        <ele>188</ele>
        <time>2025-09-03T18:54:31Z</time>
      </trkpt>
      <trkpt lat="43.63813" lon="1.25013">
        <ele>188</ele>
        <time>2025-09-03T18:54:35Z</time>
      </trkpt>
      <trkpt lat="43.63814" lon="1.24993">
        <ele>188</ele>
        <time>2025-09-03T18:54:38Z</time>
      </trkpt>
      <trkpt lat="43.63811" lon="1.24981">
        <ele>188</ele>
        <time>2025-09-03T18:54:41Z</time>
      </trkpt>
      <trkpt lat="43.63802" lon="1.24859">
        <ele>189</ele>
        <time>2025-09-03T18:55:01Z</time>
      </trkpt>
      <trkpt lat="43.63807" lon="1.24772">
        <ele>189</ele>
        <time>2025-09-03T18:55:16Z</time>
      </trkpt>
      <trkpt lat="43.63813" lon="1.24751">
        <ele>189</ele>
        <time>2025-09-03T18:55:20Z</time>
      </trkpt>
      <trkpt lat="43.63824" lon="1.24726">
        <ele>189</ele>
        <time>2025-09-03T18:55:25Z</time>
      </trkpt>
      <trkpt lat="43.63826" lon="1.24711">
        <ele>189</ele>
        <time>2025-09-03T18:55:27Z</time>
      </trkpt>
      <trkpt lat="43.6382" lon="1.2465">
        <ele>189</ele>
        <time>2025-09-03T18:55:38Z</time>
      </trkpt>
      <trkpt lat="43.63825" lon="1.24613">
        <ele>189</ele>
        <time>2025-09-03T18:55:44Z</time>
      </trkpt>
      <trkpt lat="43.63834" lon="1.24591">
        <ele>189</ele>
        <time>2025-09-03T18:55:48Z</time>
      </trkpt>
      <trkpt lat="43.63873" lon="1.24552">
        <ele>189</ele>
        <time>2025-09-03T18:56:00Z</time>
      </trkpt>
      <trkpt lat="43.63877" lon="1.2454">
        <ele>189</ele>
        <time>2025-09-03T18:56:02Z</time>
      </trkpt>
      <trkpt lat="43.63874" lon="1.24536">
        <ele>189</ele>
        <time>2025-09-03T18:56:03Z</time>
      </trkpt>
      <trkpt lat="43.63794" lon="1.24501">
        <ele>189</ele>
        <time>2025-09-03T18:56:23Z</time>
      </trkpt>
      <trkpt lat="43.63785" lon="1.24493">
        <ele>189</ele>
        <time>2025-09-03T18:56:25Z</time>
      </trkpt>
      <trkpt lat="43.63776" lon="1.24478">
        <ele>189</ele>
        <time>2025-09-03T18:56:28Z</time>
      </trkpt>
      <trkpt lat="43.63735" lon="1.24435">
        <ele>189</ele>
        <time>2025-09-03T18:56:40Z</time>
      </trkpt>
      <trkpt lat="43.63724" lon="1.24417">
        <ele>189</ele>
        <time>2025-09-03T18:56:44Z</time>
      </trkpt>
      <trkpt lat="43.63703" lon="1.24367">
        <ele>189</ele>
        <time>2025-09-03T18:56:54Z</time>
      </trkpt>
      <trkpt lat="43.63681" lon="1.24279">
        <ele>190</ele>
        <time>2025-09-03T18:57:10Z</time>
      </trkpt>
      <trkpt lat="43.63658" lon="1.2424">
        <ele>189.8</ele>
        <time>2025-09-03T18:57:18Z</time>
      </trkpt>
      <trkpt lat="43.63639" lon="1.24192">
        <ele>190</ele>
        <time>2025-09-03T18:57:28Z</time>
      </trkpt>
      <trkpt lat="43.63647" lon="1.24122">
        <ele>190.2</ele>
        <time>2025-09-03T18:57:40Z</time>
      </trkpt>
      <trkpt lat="43.63638" lon="1.24105">
        <ele>190</ele>
        <time>2025-09-03T18:57:43Z</time>
      </trkpt>
      <trkpt lat="43.63639" lon="1.24085">
        <ele>190</ele>
        <time>2025-09-03T18:57:46Z</time>
      </trkpt>
      <trkpt lat="43.63642" lon="1.24074">
        <ele>190.4</ele>
        <time>2025-09-03T18:57:48Z</time>
      </trkpt>
      <trkpt lat="43.63649" lon="1.24066">
        <ele>190.8</ele>
        <time>2025-09-03T18:57:51Z</time>
      </trkpt>
      <trkpt lat="43.63654" lon="1.24045">
        <ele>191</ele>
        <time>2025-09-03T18:57:54Z</time>
      </trkpt>
      <trkpt lat="43.63708" lon="1.23917">
        <ele>192</ele>
        <time>2025-09-03T18:58:19Z</time>
      </trkpt>
      <trkpt lat="43.6374" lon="1.23863">
        <ele>192.3</ele>
        <time>2025-09-03T18:58:31Z</time>
      </trkpt>
      <trkpt lat="43.6375" lon="1.23852">
        <ele>192</ele>
        <time>2025-09-03T18:58:34Z</time>
      </trkpt>
      <trkpt lat="43.63764" lon="1.2383">
        <ele>192</ele>
        <time>2025-09-03T18:58:39Z</time>
      </trkpt>
      <trkpt lat="43.63766" lon="1.23819">
        <ele>192</ele>
        <time>2025-09-03T18:58:41Z</time>
      </trkpt>
      <trkpt lat="43.63768" lon="1.23775">
        <ele>192.4</ele>
        <time>2025-09-03T18:58:48Z</time>
      </trkpt>
      <trkpt lat="43.63764" lon="1.23759">
        <ele>192.5</ele>
        <time>2025-09-03T18:58:51Z</time>
      </trkpt>
      <trkpt lat="43.63769" lon="1.23736">
        <ele>192.3</ele>
        <time>2025-09-03T18:58:55Z</time>
      </trkpt>
      <trkpt lat="43.6377" lon="1.23684">
        <ele>193.1</ele>
        <time>2025-09-03T18:59:04Z</time>
      </trkpt>
      <trkpt lat="43.63763" lon="1.23654">
        <ele>193.5</ele>
        <time>2025-09-03T18:59:10Z</time>
      </trkpt>
      <trkpt lat="43.63734" lon="1.23623">
        <ele>194.6</ele>
        <time>2025-09-03T18:59:18Z</time>
      </trkpt>
      <trkpt lat="43.63727" lon="1.23612">
        <ele>194.8</ele>
        <time>2025-09-03T18:59:21Z</time>
      </trkpt>
      <trkpt lat="43.6373" lon="1.23589">
        <ele>195.5</ele>
        <time>2025-09-03T18:59:25Z</time>
      </trkpt>
      <trkpt lat="43.63727" lon="1.23568">
        <ele>195.8</ele>
        <time>2025-09-03T18:59:28Z</time>
      </trkpt>
      <trkpt lat="43.63737" lon="1.23499">
        <ele>196.5</ele>
        <time>2025-09-03T18:59:40Z</time>
      </trkpt>
      <trkpt lat="43.6373" lon="1.23473">
        <ele>197</ele>
        <time>2025-09-03T18:59:45Z</time>
      </trkpt>
      <trkpt lat="43.63732" lon="1.2345">
        <ele>197.5</ele>
        <time>2025-09-03T18:59:49Z</time>
      </trkpt>
      <trkpt lat="43.6372" lon="1.23403">
        <ele>198</ele>
        <time>2025-09-03T18:59:57Z</time>
      </trkpt>
      <trkpt lat="43.63726" lon="1.23383">
        <ele>198</ele>
        <time>2025-09-03T19:00:01Z</time>
      </trkpt>
      <trkpt lat="43.63877" lon="1.23205">
        <ele>199.4</ele>
        <time>2025-09-03T19:00:47Z</time>
      </trkpt>
      <trkpt lat="43.63957" lon="1.23119">
        <ele>197.5</ele>
        <time>2025-09-03T19:01:11Z</time>
      </trkpt>
      <trkpt lat="43.63961" lon="1.2311">
        <ele>197.4</ele>
        <time>2025-09-03T19:01:13Z</time>
      </trkpt>
      <trkpt lat="43.63992" lon="1.23068">
        <ele>199.4</ele>
        <time>2025-09-03T19:01:23Z</time>
      </trkpt>
      <trkpt lat="43.63992" lon="1.23056">
        <ele>200</ele>
        <time>2025-09-03T19:01:25Z</time>
      </trkpt>
      <trkpt lat="43.63975" lon="1.2304">
        <ele>202.7</ele>
        <time>2025-09-03T19:01:29Z</time>
      </trkpt>
      <trkpt lat="43.63958" lon="1.23018">
        <ele>204.3</ele>
        <time>2025-09-03T19:01:35Z</time>
      </trkpt>
      <trkpt lat="43.6397" lon="1.2299">
        <ele>204.2</ele>
        <time>2025-09-03T19:01:40Z</time>
      </trkpt>
      <trkpt lat="43.63975" lon="1.22961">
        <ele>204.4</ele>
        <time>2025-09-03T19:01:45Z</time>
      </trkpt>
      <trkpt lat="43.63985" lon="1.22929">
        <ele>204.5</ele>
        <time>2025-09-03T19:01:51Z</time>
      </trkpt>
      <trkpt lat="43.63989" lon="1.22879">
        <ele>204.4</ele>
        <time>2025-09-03T19:02:00Z</time>
      </trkpt>
      <trkpt lat="43.63985" lon="1.2286">
        <ele>204.5</ele>
        <time>2025-09-03T19:02:03Z</time>
      </trkpt>
      <trkpt lat="43.63978" lon="1.22842">
        <ele>204.2</ele>
        <time>2025-09-03T19:02:07Z</time>
      </trkpt>
      <trkpt lat="43.63965" lon="1.2282">
        <ele>204.1</ele>
        <time>2025-09-03T19:02:11Z</time>
      </trkpt>
      <trkpt lat="43.63957" lon="1.22812">
        <ele>204.1</ele>
        <time>2025-09-03T19:02:14Z</time>
      </trkpt>
      <trkpt lat="43.63945" lon="1.22781">
        <ele>204</ele>
        <time>2025-09-03T19:02:20Z</time>
      </trkpt>
      <trkpt lat="43.63942" lon="1.22763">
        <ele>204.1</ele>
        <time>2025-09-03T19:02:23Z</time>
      </trkpt>
      <trkpt lat="43.63943" lon="1.22685">
        <ele>204.4</ele>
        <time>2025-09-03T19:02:36Z</time>
      </trkpt>
      <trkpt lat="43.63948" lon="1.22679">
        <ele>204.5</ele>
        <time>2025-09-03T19:02:38Z</time>
      </trkpt>
      <trkpt lat="43.63989" lon="1.22662">
        <ele>204.1</ele>
        <time>2025-09-03T19:02:48Z</time>
      </trkpt>
      <trkpt lat="43.64014" lon="1.2264">
        <ele>204</ele>
        <time>2025-09-03T19:02:54Z</time>
      </trkpt>
      <trkpt lat="43.64025" lon="1.22638">
        <ele>204</ele>
        <time>2025-09-03T19:02:57Z</time>
      </trkpt>
      <trkpt lat="43.64032" lon="1.22641">
        <ele>204.1</ele>
        <time>2025-09-03T19:02:59Z</time>
      </trkpt>
      <trkpt lat="43.64039" lon="1.22638">
        <ele>204.4</ele>
        <time>2025-09-03T19:03:00Z</time>
      </trkpt>
      <trkpt lat="43.64049" lon="1.22626">
        <ele>204.9</ele>
        <time>2025-09-03T19:03:04Z</time>
      </trkpt>
      <trkpt lat="43.64062" lon="1.22624">
        <ele>205</ele>
        <time>2025-09-03T19:03:07Z</time>
      </trkpt>
      <trkpt lat="43.64076" lon="1.22613">
        <ele>205</ele>
        <time>2025-09-03T19:03:10Z</time>
      </trkpt>
      <trkpt lat="43.64102" lon="1.22547">
        <ele>206.2</ele>
        <time>2025-09-03T19:03:23Z</time>
      </trkpt>
      <trkpt lat="43.6412" lon="1.22516">
        <ele>207</ele>
        <time>2025-09-03T19:03:30Z</time>
      </trkpt>
      <trkpt lat="43.64127" lon="1.22497">
        <ele>207.1</ele>
        <time>2025-09-03T19:03:33Z</time>
      </trkpt>
      <trkpt lat="43.64129" lon="1.22385">
        <ele>208</ele>
        <time>2025-09-03T19:03:52Z</time>
      </trkpt>
      <trkpt lat="43.64136" lon="1.22345">
        <ele>208.6</ele>
        <time>2025-09-03T19:03:59Z</time>
      </trkpt>
      <trkpt lat="43.64135" lon="1.22307">
        <ele>209</ele>
        <time>2025-09-03T19:04:06Z</time>
      </trkpt>
      <trkpt lat="43.64144" lon="1.22286">
        <ele>209</ele>
        <time>2025-09-03T19:04:10Z</time>
      </trkpt>
      <trkpt lat="43.64187" lon="1.22231">
        <ele>208.8</ele>
        <time>2025-09-03T19:04:24Z</time>
      </trkpt>
      <trkpt lat="43.64188" lon="1.22227">
        <ele>208.9</ele>
        <time>2025-09-03T19:04:24Z</time>
      </trkpt>
      <trkpt lat="43.64185" lon="1.2222">
        <ele>208.9</ele>
        <time>2025-09-03T19:04:26Z</time>
      </trkpt>
      <trkpt lat="43.64174" lon="1.22206">
        <ele>208.8</ele>
        <time>2025-09-03T19:04:29Z</time>
      </trkpt>
      <trkpt lat="43.64174" lon="1.22201">
        <ele>208.8</ele>
        <time>2025-09-03T19:04:30Z</time>
      </trkpt>
      <trkpt lat="43.64178" lon="1.22195">
        <ele>208.6</ele>
        <time>2025-09-03T19:04:31Z</time>
      </trkpt>
      <trkpt lat="43.64177" lon="1.22189">
        <ele>208.7</ele>
        <time>2025-09-03T19:04:32Z</time>
      </trkpt>
      <trkpt lat="43.64162" lon="1.22191">
        <ele>209</ele>
        <time>2025-09-03T19:04:36Z</time>
      </trkpt>
      <trkpt lat="43.64105" lon="1.22147">
        <ele>210.2</ele>
        <time>2025-09-03T19:04:51Z</time>
      </trkpt>
      <trkpt lat="43.64015" lon="1.22069">
        <ele>213</ele>
        <time>2025-09-03T19:05:16Z</time>
      </trkpt>
      <trkpt lat="43.63807" lon="1.21896">
        <ele>225.9</ele>
        <time>2025-09-03T19:06:13Z</time>
      </trkpt>
      <trkpt lat="43.63689" lon="1.21792">
        <ele>226</ele>
        <time>2025-09-03T19:06:45Z</time>
      </trkpt>
      <trkpt lat="43.63347" lon="1.21509">
        <ele>226</ele>
        <time>2025-09-03T19:08:18Z</time>
      </trkpt>
      <trkpt lat="43.63332" lon="1.21524">
        <ele>226</ele>
        <time>2025-09-03T19:08:23Z</time>
      </trkpt>
      <trkpt lat="43.63321" lon="1.21568">
        <ele>226.4</ele>
        <time>2025-09-03T19:08:31Z</time>
      </trkpt>
      <trkpt lat="43.63322" lon="1.21583">
        <ele>226.4</ele>
        <time>2025-09-03T19:08:33Z</time>
      </trkpt>
      <trkpt lat="43.63308" lon="1.21622">
        <ele>226.9</ele>
        <time>2025-09-03T19:08:41Z</time>
      </trkpt>
      <trkpt lat="43.63294" lon="1.21688">
        <ele>227</ele>
        <time>2025-09-03T19:08:52Z</time>
      </trkpt>
      <trkpt lat="43.63276" lon="1.21742">
        <ele>228</ele>
        <time>2025-09-03T19:09:02Z</time>
      </trkpt>
      <trkpt lat="43.63263" lon="1.21765">
        <ele>228</ele>
        <time>2025-09-03T19:09:07Z</time>
      </trkpt>
      <trkpt lat="43.63188" lon="1.21855">
        <ele>228</ele>
        <time>2025-09-03T19:09:30Z</time>
      </trkpt>
      <trkpt lat="43.63146" lon="1.21937">
        <ele>228</ele>
        <time>2025-09-03T19:09:47Z</time>
      </trkpt>
      <trkpt lat="43.63131" lon="1.21945">
        <ele>228</ele>
        <time>2025-09-03T19:09:51Z</time>
      </trkpt>
      <trkpt lat="43.63125" lon="1.21951">
        <ele>227.9</ele>
        <time>2025-09-03T19:09:53Z</time>
      </trkpt>
      <trkpt lat="43.63077" lon="1.21954">
        <ele>227.8</ele>
        <time>2025-09-03T19:10:04Z</time>
      </trkpt>
      <trkpt lat="43.63059" lon="1.2196">
        <ele>227.1</ele>
        <time>2025-09-03T19:10:08Z</time>
      </trkpt>
      <trkpt lat="43.62994" lon="1.21991">
        <ele>224</ele>
        <time>2025-09-03T19:10:24Z</time>
      </trkpt>
      <trkpt lat="43.62966" lon="1.21992">
        <ele>222.3</ele>
        <time>2025-09-03T19:10:31Z</time>
      </trkpt>
      <trkpt lat="43.62942" lon="1.21985">
        <ele>221.4</ele>
        <time>2025-09-03T19:10:37Z</time>
      </trkpt>
      <trkpt lat="43.62899" lon="1.21961">
        <ele>218.8</ele>
        <time>2025-09-03T19:10:48Z</time>
      </trkpt>
      <trkpt lat="43.62879" lon="1.21935">
        <ele>218.4</ele>
        <time>2025-09-03T19:10:54Z</time>
      </trkpt>
      <trkpt lat="43.6285" lon="1.21906">
        <ele>217.4</ele>
        <time>2025-09-03T19:11:02Z</time>
      </trkpt>
      <trkpt lat="43.62824" lon="1.21882">
        <ele>217.2</ele>
        <time>2025-09-03T19:11:10Z</time>
      </trkpt>
      <trkpt lat="43.62814" lon="1.21878">
        <ele>217.4</ele>
        <time>2025-09-03T19:11:12Z</time>
      </trkpt>
      <trkpt lat="43.62807" lon="1.21878">
        <ele>217.4</ele>
        <time>2025-09-03T19:11:14Z</time>
      </trkpt>
      <trkpt lat="43.62732" lon="1.21903">
        <ele>215.5</ele>
        <time>2025-09-03T19:11:32Z</time>
      </trkpt>
      <trkpt lat="43.62694" lon="1.21902">
        <ele>214.5</ele>
        <time>2025-09-03T19:11:41Z</time>
      </trkpt>
      <trkpt lat="43.62676" lon="1.21894">
        <ele>213.5</ele>
        <time>2025-09-03T19:11:45Z</time>
      </trkpt>
      <trkpt lat="43.62649" lon="1.21875">
        <ele>212.2</ele>
        <time>2025-09-03T19:11:52Z</time>
      </trkpt>
      <trkpt lat="43.62613" lon="1.21865">
        <ele>210.1</ele>
        <time>2025-09-03T19:12:01Z</time>
      </trkpt>
      <trkpt lat="43.62569" lon="1.21841">
        <ele>209.2</ele>
        <time>2025-09-03T19:12:12Z</time>
      </trkpt>
      <trkpt lat="43.62539" lon="1.21821">
        <ele>209.4</ele>
        <time>2025-09-03T19:12:19Z</time>
      </trkpt>
      <trkpt lat="43.62526" lon="1.21817">
        <ele>209.5</ele>
        <time>2025-09-03T19:12:23Z</time>
      </trkpt>
      <trkpt lat="43.62508" lon="1.21814">
        <ele>209</ele>
        <time>2025-09-03T19:12:27Z</time>
      </trkpt>
      <trkpt lat="43.6241" lon="1.21817">
        <ele>206.3</ele>
        <time>2025-09-03T19:12:50Z</time>
      </trkpt>
      <trkpt lat="43.62343" lon="1.21808">
        <ele>205.9</ele>
        <time>2025-09-03T19:13:05Z</time>
      </trkpt>
      <trkpt lat="43.62333" lon="1.21803">
        <ele>206.2</ele>
        <time>2025-09-03T19:13:08Z</time>
      </trkpt>
      <trkpt lat="43.62331" lon="1.21794">
        <ele>206.8</ele>
        <time>2025-09-03T19:13:09Z</time>
      </trkpt>
      <trkpt lat="43.62335" lon="1.21782">
        <ele>207.6</ele>
        <time>2025-09-03T19:13:12Z</time>
      </trkpt>
      <trkpt lat="43.62351" lon="1.21751">
        <ele>208</ele>
        <time>2025-09-03T19:13:18Z</time>
      </trkpt>
      <trkpt lat="43.62372" lon="1.21701">
        <ele>209.5</ele>
        <time>2025-09-03T19:13:28Z</time>
      </trkpt>
      <trkpt lat="43.62371" lon="1.21695">
        <ele>209.6</ele>
        <time>2025-09-03T19:13:29Z</time>
      </trkpt>
      <trkpt lat="43.62364" lon="1.21687">
        <ele>210.2</ele>
        <time>2025-09-03T19:13:31Z</time>
      </trkpt>
      <trkpt lat="43.6213" lon="1.21494">
        <ele>209.9</ele>
        <time>2025-09-03T19:14:35Z</time>
      </trkpt>
      <trkpt lat="43.62069" lon="1.21447">
        <ele>210.3</ele>
        <time>2025-09-03T19:14:51Z</time>
      </trkpt>
      <trkpt lat="43.62049" lon="1.21439">
        <ele>210.2</ele>
        <time>2025-09-03T19:14:56Z</time>
      </trkpt>
      <trkpt lat="43.62017" lon="1.21437">
        <ele>208.9</ele>
        <time>2025-09-03T19:15:03Z</time>
      </trkpt>
      <trkpt lat="43.61996" lon="1.21432">
        <ele>208.1</ele>
        <time>2025-09-03T19:15:08Z</time>
      </trkpt>
      <trkpt lat="43.61971" lon="1.2142">
        <ele>207.7</ele>
        <time>2025-09-03T19:15:15Z</time>
      </trkpt>
      <trkpt lat="43.61961" lon="1.2141">
        <ele>207.7</ele>
        <time>2025-09-03T19:15:17Z</time>
      </trkpt>
      <trkpt lat="43.6195" lon="1.21404">
        <ele>207.3</ele>
        <time>2025-09-03T19:15:20Z</time>
      </trkpt>
      <trkpt lat="43.61908" lon="1.21396">
        <ele>206.2</ele>
        <time>2025-09-03T19:15:30Z</time>
      </trkpt>
      <trkpt lat="43.61895" lon="1.21389">
        <ele>206.2</ele>
        <time>2025-09-03T19:15:33Z</time>
      </trkpt>
      <trkpt lat="43.61886" lon="1.21388">
        <ele>205.9</ele>
        <time>2025-09-03T19:15:35Z</time>
      </trkpt>
      <trkpt lat="43.61811" lon="1.21346">
        <ele>206.5</ele>
        <time>2025-09-03T19:15:54Z</time>
      </trkpt>
      <trkpt lat="43.61781" lon="1.21318">
        <ele>207</ele>
        <time>2025-09-03T19:16:03Z</time>
      </trkpt>
      <trkpt lat="43.61761" lon="1.21306">
        <ele>207</ele>
        <time>2025-09-03T19:16:08Z</time>
      </trkpt>
      <trkpt lat="43.61681" lon="1.21232">
        <ele>206.3</ele>
        <time>2025-09-03T19:16:30Z</time>
      </trkpt>
      <trkpt lat="43.61676" lon="1.21219">
        <ele>206.3</ele>
        <time>2025-09-03T19:16:33Z</time>
      </trkpt>
      <trkpt lat="43.61671" lon="1.21213">
        <ele>206.2</ele>
        <time>2025-09-03T19:16:34Z</time>
      </trkpt>
      <trkpt lat="43.61658" lon="1.21202">
        <ele>205.7</ele>
        <time>2025-09-03T19:16:38Z</time>
      </trkpt>
      <trkpt lat="43.6165" lon="1.2119">
        <ele>205.6</ele>
        <time>2025-09-03T19:16:41Z</time>
      </trkpt>
      <trkpt lat="43.6163" lon="1.21169">
        <ele>205.6</ele>
        <time>2025-09-03T19:16:47Z</time>
      </trkpt>
      <trkpt lat="43.61624" lon="1.21166">
        <ele>205.5</ele>
        <time>2025-09-03T19:16:48Z</time>
      </trkpt>
      <trkpt lat="43.61621" lon="1.21153">
        <ele>205.8</ele>
        <time>2025-09-03T19:16:50Z</time>
      </trkpt>
      <trkpt lat="43.61573" lon="1.21091">
        <ele>205.1</ele>
        <time>2025-09-03T19:17:06Z</time>
      </trkpt>
      <trkpt lat="43.61557" lon="1.21063">
        <ele>204.8</ele>
        <time>2025-09-03T19:17:12Z</time>
      </trkpt>
      <trkpt lat="43.61544" lon="1.21031">
        <ele>205.1</ele>
        <time>2025-09-03T19:17:18Z</time>
      </trkpt>
      <trkpt lat="43.61525" lon="1.20998">
        <ele>204.9</ele>
        <time>2025-09-03T19:17:25Z</time>
      </trkpt>
      <trkpt lat="43.6151" lon="1.20966">
        <ele>205.7</ele>
        <time>2025-09-03T19:17:32Z</time>
      </trkpt>
      <trkpt lat="43.61501" lon="1.20957">
        <ele>205.6</ele>
        <time>2025-09-03T19:17:34Z</time>
      </trkpt>
      <trkpt lat="43.61492" lon="1.20942">
        <ele>205.8</ele>
        <time>2025-09-03T19:17:37Z</time>
      </trkpt>
      <trkpt lat="43.61461" lon="1.20881">
        <ele>206.5</ele>
        <time>2025-09-03T19:17:50Z</time>
      </trkpt>
      <trkpt lat="43.61445" lon="1.20855">
        <ele>206.3</ele>
        <time>2025-09-03T19:17:56Z</time>
      </trkpt>
      <trkpt lat="43.61434" lon="1.20822">
        <ele>206.7</ele>
        <time>2025-09-03T19:18:02Z</time>
      </trkpt>
      <trkpt lat="43.61398" lon="1.20741">
        <ele>207</ele>
        <time>2025-09-03T19:18:18Z</time>
      </trkpt>
      <trkpt lat="43.61327" lon="1.20624">
        <ele>206.5</ele>
        <time>2025-09-03T19:18:44Z</time>
      </trkpt>
      <trkpt lat="43.61313" lon="1.20603">
        <ele>206.6</ele>
        <time>2025-09-03T19:18:49Z</time>
      </trkpt>
      <trkpt lat="43.61305" lon="1.20595">
        <ele>206.4</ele>
        <time>2025-09-03T19:18:51Z</time>
      </trkpt>
      <trkpt lat="43.61272" lon="1.2054">
        <ele>206.8</ele>
        <time>2025-09-03T19:19:03Z</time>
      </trkpt>
      <trkpt lat="43.61226" lon="1.20478">
        <ele>206.9</ele>
        <time>2025-09-03T19:19:18Z</time>
      </trkpt>
      <trkpt lat="43.61201" lon="1.20465">
        <ele>207</ele>
        <time>2025-09-03T19:19:24Z</time>
      </trkpt>
      <trkpt lat="43.61178" lon="1.20464">
        <ele>207.2</ele>
        <time>2025-09-03T19:19:30Z</time>
      </trkpt>
      <trkpt lat="43.61113" lon="1.20491">
        <ele>207.3</ele>
        <time>2025-09-03T19:19:46Z</time>
      </trkpt>
      <trkpt lat="43.6109" lon="1.20481">
        <ele>207.4</ele>
        <time>2025-09-03T19:19:51Z</time>
      </trkpt>
      <trkpt lat="43.61052" lon="1.20454">
        <ele>207.7</ele>
        <time>2025-09-03T19:20:01Z</time>
      </trkpt>
      <trkpt lat="43.60998" lon="1.20439">
        <ele>209.5</ele>
        <time>2025-09-03T19:20:14Z</time>
      </trkpt>
      <trkpt lat="43.60934" lon="1.20401">
        <ele>212</ele>
        <time>2025-09-03T19:20:30Z</time>
      </trkpt>
      <trkpt lat="43.60896" lon="1.20404">
        <ele>210.2</ele>
        <time>2025-09-03T19:20:39Z</time>
      </trkpt>
      <trkpt lat="43.6088" lon="1.20408">
        <ele>209.3</ele>
        <time>2025-09-03T19:20:43Z</time>
      </trkpt>
      <trkpt lat="43.60816" lon="1.20433">
        <ele>206.8</ele>
        <time>2025-09-03T19:20:58Z</time>
      </trkpt>
      <trkpt lat="43.60798" lon="1.20431">
        <ele>206.2</ele>
        <time>2025-09-03T19:21:03Z</time>
      </trkpt>
      <trkpt lat="43.60788" lon="1.20426">
        <ele>206</ele>
        <time>2025-09-03T19:21:05Z</time>
      </trkpt>
      <trkpt lat="43.60765" lon="1.20408">
        <ele>205.9</ele>
        <time>2025-09-03T19:21:11Z</time>
      </trkpt>
      <trkpt lat="43.60733" lon="1.20395">
        <ele>205.2</ele>
        <time>2025-09-03T19:21:19Z</time>
      </trkpt>
      <trkpt lat="43.60711" lon="1.20379">
        <ele>205.1</ele>
        <time>2025-09-03T19:21:25Z</time>
      </trkpt>
      <trkpt lat="43.60659" lon="1.20358">
        <ele>206.3</ele>
        <time>2025-09-03T19:21:38Z</time>
      </trkpt>
      <trkpt lat="43.60651" lon="1.20351">
        <ele>205.7</ele>
        <time>2025-09-03T19:21:40Z</time>
      </trkpt>
      <trkpt lat="43.60593" lon="1.20271">
        <ele>204.4</ele>
        <time>2025-09-03T19:21:59Z</time>
      </trkpt>
      <trkpt lat="43.60558" lon="1.20197">
        <ele>205.9</ele>
        <time>2025-09-03T19:22:14Z</time>
      </trkpt>
      <trkpt lat="43.60539" lon="1.20142">
        <ele>206.7</ele>
        <time>2025-09-03T19:22:24Z</time>
      </trkpt>
      <trkpt lat="43.60527" lon="1.20121">
        <ele>207.3</ele>
        <time>2025-09-03T19:22:29Z</time>
      </trkpt>
      <trkpt lat="43.605" lon="1.20091">
        <ele>207.7</ele>
        <time>2025-09-03T19:22:37Z</time>
      </trkpt>
      <trkpt lat="43.60489" lon="1.20072">
        <ele>208.3</ele>
        <time>2025-09-03T19:22:41Z</time>
      </trkpt>
      <trkpt lat="43.60373" lon="1.19927">
        <ele>211.3</ele>
        <time>2025-09-03T19:23:17Z</time>
      </trkpt>
      <trkpt lat="43.60352" lon="1.19909">
        <ele>210.6</ele>
        <time>2025-09-03T19:23:23Z</time>
      </trkpt>
      <trkpt lat="43.60334" lon="1.19889">
        <ele>210</ele>
        <time>2025-09-03T19:23:29Z</time>
      </trkpt>
      <trkpt lat="43.60324" lon="1.19864">
        <ele>210.2</ele>
        <time>2025-09-03T19:23:33Z</time>
      </trkpt>
      <trkpt lat="43.60322" lon="1.19845">
        <ele>210.8</ele>
        <time>2025-09-03T19:23:37Z</time>
      </trkpt>
      <trkpt lat="43.60324" lon="1.19795">
        <ele>213</ele>
        <time>2025-09-03T19:23:45Z</time>
      </trkpt>
      <trkpt lat="43.60322" lon="1.19725">
        <ele>216.2</ele>
        <time>2025-09-03T19:23:57Z</time>
      </trkpt>
      <trkpt lat="43.60323" lon="1.19648">
        <ele>219.8</ele>
        <time>2025-09-03T19:24:10Z</time>
      </trkpt>
      <trkpt lat="43.60336" lon="1.19545">
        <ele>221.9</ele>
        <time>2025-09-03T19:24:28Z</time>
      </trkpt>
      <trkpt lat="43.60348" lon="1.19499">
        <ele>222.1</ele>
        <time>2025-09-03T19:24:36Z</time>
      </trkpt>
      <trkpt lat="43.60347" lon="1.19479">
        <ele>221.2</ele>
        <time>2025-09-03T19:24:39Z</time>
      </trkpt>
      <trkpt lat="43.60339" lon="1.19431">
        <ele>219.1</ele>
        <time>2025-09-03T19:24:48Z</time>
      </trkpt>
      <trkpt lat="43.6032" lon="1.19396">
        <ele>217.9</ele>
        <time>2025-09-03T19:24:55Z</time>
      </trkpt>
      <trkpt lat="43.60244" lon="1.19312">
        <ele>220.6</ele>
        <time>2025-09-03T19:25:18Z</time>
      </trkpt>
      <trkpt lat="43.60228" lon="1.1928">
        <ele>221.1</ele>
        <time>2025-09-03T19:25:24Z</time>
      </trkpt>
      <trkpt lat="43.60221" lon="1.19259">
        <ele>220.9</ele>
        <time>2025-09-03T19:25:28Z</time>
      </trkpt>
      <trkpt lat="43.60213" lon="1.19216">
        <ele>220.5</ele>
        <time>2025-09-03T19:25:36Z</time>
      </trkpt>
      <trkpt lat="43.60201" lon="1.19185">
        <ele>219.7</ele>
        <time>2025-09-03T19:25:42Z</time>
      </trkpt>
      <trkpt lat="43.6015" lon="1.19121">
        <ele>217.6</ele>
        <time>2025-09-03T19:25:58Z</time>
      </trkpt>
      <trkpt lat="43.60141" lon="1.19118">
        <ele>217.8</ele>
        <time>2025-09-03T19:26:00Z</time>
      </trkpt>
      <trkpt lat="43.60098" lon="1.19077">
        <ele>223.8</ele>
        <time>2025-09-03T19:26:12Z</time>
      </trkpt>
      <trkpt lat="43.60081" lon="1.19069">
        <ele>225.7</ele>
        <time>2025-09-03T19:26:16Z</time>
      </trkpt>
      <trkpt lat="43.6005" lon="1.19073">
        <ele>228.1</ele>
        <time>2025-09-03T19:26:24Z</time>
      </trkpt>
      <trkpt lat="43.60012" lon="1.19092">
        <ele>229.6</ele>
        <time>2025-09-03T19:26:33Z</time>
      </trkpt>
      <trkpt lat="43.59984" lon="1.19097">
        <ele>230</ele>
        <time>2025-09-03T19:26:40Z</time>
      </trkpt>
      <trkpt lat="43.59917" lon="1.1908">
        <ele>228.1</ele>
        <time>2025-09-03T19:26:56Z</time>
      </trkpt>
      <trkpt lat="43.59865" lon="1.19076">
        <ele>223.8</ele>
        <time>2025-09-03T19:27:08Z</time>
      </trkpt>
      <trkpt lat="43.59862" lon="1.19072">
        <ele>223.9</ele>
        <time>2025-09-03T19:27:09Z</time>
      </trkpt>
      <trkpt lat="43.59862" lon="1.1906">
        <ele>224.7</ele>
        <time>2025-09-03T19:27:11Z</time>
      </trkpt>
      <trkpt lat="43.59876" lon="1.19036">
        <ele>227.1</ele>
        <time>2025-09-03T19:27:16Z</time>
      </trkpt>
      <trkpt lat="43.59893" lon="1.18985">
        <ele>231.2</ele>
        <time>2025-09-03T19:27:26Z</time>
      </trkpt>
      <trkpt lat="43.59997" lon="1.18759">
        <ele>240</ele>
        <time>2025-09-03T19:28:11Z</time>
      </trkpt>
      <trkpt lat="43.59998" lon="1.18745">
        <ele>240.2</ele>
        <time>2025-09-03T19:28:13Z</time>
      </trkpt>
      <trkpt lat="43.59995" lon="1.1874">
        <ele>240.4</ele>
        <time>2025-09-03T19:28:14Z</time>
      </trkpt>
      <trkpt lat="43.5996" lon="1.18709">
        <ele>241.5</ele>
        <time>2025-09-03T19:28:24Z</time>
      </trkpt>
      <trkpt lat="43.5991" lon="1.18669">
        <ele>242.7</ele>
        <time>2025-09-03T19:28:37Z</time>
      </trkpt>
      <trkpt lat="43.59906" lon="1.18663">
        <ele>242.7</ele>
        <time>2025-09-03T19:28:39Z</time>
      </trkpt>
      <trkpt lat="43.59897" lon="1.18658">
        <ele>242.5</ele>
        <time>2025-09-03T19:28:41Z</time>
      </trkpt>
      <trkpt lat="43.59708" lon="1.18503">
        <ele>241.5</ele>
        <time>2025-09-03T19:29:32Z</time>
      </trkpt>
      <trkpt lat="43.59701" lon="1.18488">
        <ele>241.2</ele>
        <time>2025-09-03T19:29:35Z</time>
      </trkpt>
      <trkpt lat="43.597" lon="1.18474">
        <ele>241.2</ele>
        <time>2025-09-03T19:29:38Z</time>
      </trkpt>
      <trkpt lat="43.59704" lon="1.18436">
        <ele>240.6</ele>
        <time>2025-09-03T19:29:44Z</time>
      </trkpt>
      <trkpt lat="43.597" lon="1.18432">
        <ele>240.6</ele>
        <time>2025-09-03T19:29:46Z</time>
      </trkpt>
      <trkpt lat="43.59687" lon="1.18426">
        <ele>240.5</ele>
        <time>2025-09-03T19:29:49Z</time>
      </trkpt>
      <trkpt lat="43.59599" lon="1.18469">
        <ele>236.2</ele>
        <time>2025-09-03T19:30:11Z</time>
      </trkpt>
      <trkpt lat="43.5957" lon="1.18491">
        <ele>235.5</ele>
        <time>2025-09-03T19:30:18Z</time>
      </trkpt>
      <trkpt lat="43.59509" lon="1.18546">
        <ele>235.4</ele>
        <time>2025-09-03T19:30:35Z</time>
      </trkpt>
      <trkpt lat="43.59489" lon="1.18552">
        <ele>235</ele>
        <time>2025-09-03T19:30:40Z</time>
      </trkpt>
      <trkpt lat="43.59468" lon="1.18554">
        <ele>233.8</ele>
        <time>2025-09-03T19:30:45Z</time>
      </trkpt>
      <trkpt lat="43.59458" lon="1.18545">
        <ele>233.7</ele>
        <time>2025-09-03T19:30:48Z</time>
      </trkpt>
      <trkpt lat="43.59405" lon="1.18559">
        <ele>228</ele>
        <time>2025-09-03T19:31:00Z</time>
      </trkpt>
      <trkpt lat="43.59345" lon="1.18583">
        <ele>221.7</ele>
        <time>2025-09-03T19:31:15Z</time>
      </trkpt>
      <trkpt lat="43.59323" lon="1.18604">
        <ele>218.6</ele>
        <time>2025-09-03T19:31:21Z</time>
      </trkpt>
      <trkpt lat="43.59302" lon="1.18621">
        <ele>216.1</ele>
        <time>2025-09-03T19:31:27Z</time>
      </trkpt>
      <trkpt lat="43.59292" lon="1.18626">
        <ele>215.5</ele>
        <time>2025-09-03T19:31:29Z</time>
      </trkpt>
      <trkpt lat="43.59268" lon="1.18634">
        <ele>213.5</ele>
        <time>2025-09-03T19:31:35Z</time>
      </trkpt>
      <trkpt lat="43.59177" lon="1.18654">
        <ele>210.2</ele>
        <time>2025-09-03T19:31:57Z</time>
      </trkpt>
      <trkpt lat="43.5911" lon="1.18642">
        <ele>209</ele>
        <time>2025-09-03T19:32:12Z</time>
      </trkpt>
      <trkpt lat="43.58982" lon="1.18605">
        <ele>209.2</ele>
        <time>2025-09-03T19:32:43Z</time>
      </trkpt>
      <trkpt lat="43.58891" lon="1.18588">
        <ele>209.8</ele>
        <time>2025-09-03T19:33:04Z</time>
      </trkpt>
      <trkpt lat="43.58754" lon="1.1855">
        <ele>210.1</ele>
        <time>2025-09-03T19:33:37Z</time>
      </trkpt>
      <trkpt lat="43.58785" lon="1.18416">
        <ele>212.8</ele>
        <time>2025-09-03T19:34:01Z</time>
      </trkpt>
      <trkpt lat="43.58817" lon="1.18305">
        <ele>214.6</ele>
        <time>2025-09-03T19:34:21Z</time>
      </trkpt>
      <trkpt lat="43.58843" lon="1.18235">
        <ele>213.8</ele>
        <time>2025-09-03T19:34:34Z</time>
      </trkpt>
      <trkpt lat="43.58854" lon="1.18197">
        <ele>214.2</ele>
        <time>2025-09-03T19:34:41Z</time>
      </trkpt>
      <trkpt lat="43.58899" lon="1.18089">
        <ele>214.5</ele>
        <time>2025-09-03T19:35:02Z</time>
      </trkpt>
      <trkpt lat="43.58898" lon="1.18082">
        <ele>214.7</ele>
        <time>2025-09-03T19:35:04Z</time>
      </trkpt>
      <trkpt lat="43.58756" lon="1.18068">
        <ele>217.4</ele>
        <time>2025-09-03T19:35:37Z</time>
      </trkpt>
      <trkpt lat="43.58685" lon="1.18057">
        <ele>217.9</ele>
        <time>2025-09-03T19:35:53Z</time>
      </trkpt>
      <trkpt lat="43.58636" lon="1.18045">
        <ele>217.9</ele>
        <time>2025-09-03T19:36:05Z</time>
      </trkpt>
      <trkpt lat="43.58457" lon="1.17974">
        <ele>213.7</ele>
        <time>2025-09-03T19:36:49Z</time>
      </trkpt>
      <trkpt lat="43.58318" lon="1.17929">
        <ele>217.8</ele>
        <time>2025-09-03T19:37:22Z</time>
      </trkpt>
      <trkpt lat="43.58212" lon="1.17899">
        <ele>217.6</ele>
        <time>2025-09-03T19:37:47Z</time>
      </trkpt>
      <trkpt lat="43.58204" lon="1.17895">
        <ele>217.8</ele>
        <time>2025-09-03T19:37:49Z</time>
      </trkpt>
      <trkpt lat="43.58202" lon="1.17886">
        <ele>218.2</ele>
        <time>2025-09-03T19:37:51Z</time>
      </trkpt>
      <trkpt lat="43.58195" lon="1.17875">
        <ele>219</ele>
        <time>2025-09-03T19:37:53Z</time>
      </trkpt>
      <trkpt lat="43.58157" lon="1.17844">
        <ele>222.9</ele>
        <time>2025-09-03T19:38:04Z</time>
      </trkpt>
      <trkpt lat="43.5815" lon="1.17828">
        <ele>224.5</ele>
        <time>2025-09-03T19:38:07Z</time>
      </trkpt>
      <trkpt lat="43.58168" lon="1.17716">
        <ele>228.2</ele>
        <time>2025-09-03T19:38:26Z</time>
      </trkpt>
      <trkpt lat="43.58228" lon="1.17494">
        <ele>234.1</ele>
        <time>2025-09-03T19:39:06Z</time>
      </trkpt>
      <trkpt lat="43.5826" lon="1.17401">
        <ele>236.6</ele>
        <time>2025-09-03T19:39:24Z</time>
      </trkpt>
      <trkpt lat="43.58274" lon="1.17381">
        <ele>237.3</ele>
        <time>2025-09-03T19:39:28Z</time>
      </trkpt>
      <trkpt lat="43.58282" lon="1.17358">
        <ele>238.1</ele>
        <time>2025-09-03T19:39:33Z</time>
      </trkpt>
      <trkpt lat="43.58285" lon="1.17295">
        <ele>240.1</ele>
        <time>2025-09-03T19:39:43Z</time>
      </trkpt>
      <trkpt lat="43.58315" lon="1.17148">
        <ele>248.1</ele>
        <time>2025-09-03T19:40:09Z</time>
      </trkpt>
      <trkpt lat="43.5832" lon="1.17095">
        <ele>250.4</ele>
        <time>2025-09-03T19:40:18Z</time>
      </trkpt>
      <trkpt lat="43.58307" lon="1.17071">
        <ele>251.9</ele>
        <time>2025-09-03T19:40:23Z</time>
      </trkpt>
      <trkpt lat="43.58246" lon="1.1689">
        <ele>265.1</ele>
        <time>2025-09-03T19:40:57Z</time>
      </trkpt>
      <trkpt lat="43.58201" lon="1.16647">
        <ele>282.6</ele>
        <time>2025-09-03T19:41:39Z</time>
      </trkpt>
      <trkpt lat="43.58132" lon="1.1632">
        <ele>286.7</ele>
        <time>2025-09-03T19:42:37Z</time>
      </trkpt>
      <trkpt lat="43.58128" lon="1.16309">
        <ele>286.7</ele>
        <time>2025-09-03T19:42:39Z</time>
      </trkpt>
      <trkpt lat="43.58091" lon="1.16286">
        <ele>282.8</ele>
        <time>2025-09-03T19:42:49Z</time>
      </trkpt>
      <trkpt lat="43.58076" lon="1.16261">
        <ele>281.7</ele>
        <time>2025-09-03T19:42:54Z</time>
      </trkpt>
      <trkpt lat="43.58064" lon="1.16252">
        <ele>280.8</ele>
        <time>2025-09-03T19:42:57Z</time>
      </trkpt>
      <trkpt lat="43.58056" lon="1.16252">
        <ele>279.9</ele>
        <time>2025-09-03T19:42:59Z</time>
      </trkpt>
      <trkpt lat="43.58055" lon="1.16269">
        <ele>278.6</ele>
        <time>2025-09-03T19:43:02Z</time>
      </trkpt>
      <trkpt lat="43.58059" lon="1.16282">
        <ele>278.3</ele>
        <time>2025-09-03T19:43:04Z</time>
      </trkpt>
      <trkpt lat="43.58058" lon="1.16328">
        <ele>276.6</ele>
        <time>2025-09-03T19:43:12Z</time>
      </trkpt>
      <trkpt lat="43.58014" lon="1.16647">
        <ele>261.2</ele>
        <time>2025-09-03T19:44:07Z</time>
      </trkpt>
      <trkpt lat="43.57997" lon="1.16746">
        <ele>256.1</ele>
        <time>2025-09-03T19:44:24Z</time>
      </trkpt>
      <trkpt lat="43.57983" lon="1.16793">
        <ele>252.7</ele>
        <time>2025-09-03T19:44:33Z</time>
      </trkpt>
      <trkpt lat="43.57962" lon="1.16882">
        <ele>245.5</ele>
        <time>2025-09-03T19:44:49Z</time>
      </trkpt>
      <trkpt lat="43.57936" lon="1.16941">
        <ele>242.9</ele>
        <time>2025-09-03T19:45:01Z</time>
      </trkpt>
      <trkpt lat="43.57932" lon="1.16961">
        <ele>242</ele>
        <time>2025-09-03T19:45:04Z</time>
      </trkpt>
      <trkpt lat="43.5792" lon="1.17116">
        <ele>235.8</ele>
        <time>2025-09-03T19:45:30Z</time>
      </trkpt>
      <trkpt lat="43.57907" lon="1.17247">
        <ele>230.1</ele>
        <time>2025-09-03T19:45:53Z</time>
      </trkpt>
      <trkpt lat="43.57868" lon="1.17424">
        <ele>223.8</ele>
        <time>2025-09-03T19:46:24Z</time>
      </trkpt>
      <trkpt lat="43.57868" lon="1.17433">
        <ele>223.6</ele>
        <time>2025-09-03T19:46:26Z</time>
      </trkpt>
      <trkpt lat="43.57816" lon="1.17726">
        <ele>218.4</ele>
        <time>2025-09-03T19:47:17Z</time>
      </trkpt>
      <trkpt lat="43.57779" lon="1.1782">
        <ele>216.5</ele>
        <time>2025-09-03T19:47:35Z</time>
      </trkpt>
      <trkpt lat="43.57766" lon="1.17938">
        <ele>215.2</ele>
        <time>2025-09-03T19:47:55Z</time>
      </trkpt>
      <trkpt lat="43.57776" lon="1.18021">
        <ele>214</ele>
        <time>2025-09-03T19:48:09Z</time>
      </trkpt>
      <trkpt lat="43.57641" lon="1.18051">
        <ele>214</ele>
        <time>2025-09-03T19:48:41Z</time>
      </trkpt>
      <trkpt lat="43.57586" lon="1.18049">
        <ele>213.3</ele>
        <time>2025-09-03T19:48:54Z</time>
      </trkpt>
      <trkpt lat="43.57567" lon="1.18051">
        <ele>213.2</ele>
        <time>2025-09-03T19:48:58Z</time>
      </trkpt>
      <trkpt lat="43.57522" lon="1.18115">
        <ele>212</ele>
        <time>2025-09-03T19:49:13Z</time>
      </trkpt>
      <trkpt lat="43.57499" lon="1.18151">
        <ele>212</ele>
        <time>2025-09-03T19:49:22Z</time>
      </trkpt>
      <trkpt lat="43.57464" lon="1.18215">
        <ele>209.8</ele>
        <time>2025-09-03T19:49:35Z</time>
      </trkpt>
      <trkpt lat="43.5746" lon="1.18216">
        <ele>209.7</ele>
        <time>2025-09-03T19:49:36Z</time>
      </trkpt>
      <trkpt lat="43.5739" lon="1.1817">
        <ele>209</ele>
        <time>2025-09-03T19:49:54Z</time>
      </trkpt>
      <trkpt lat="43.57319" lon="1.18106">
        <ele>209</ele>
        <time>2025-09-03T19:50:14Z</time>
      </trkpt>
      <trkpt lat="43.57256" lon="1.18055">
        <ele>209</ele>
        <time>2025-09-03T19:50:31Z</time>
      </trkpt>
      <trkpt lat="43.572" lon="1.18051">
        <ele>209</ele>
        <time>2025-09-03T19:50:44Z</time>
      </trkpt>
      <trkpt lat="43.57103" lon="1.18067">
        <ele>208</ele>
        <time>2025-09-03T19:51:07Z</time>
      </trkpt>
      <trkpt lat="43.5707" lon="1.18071">
        <ele>208</ele>
        <time>2025-09-03T19:51:15Z</time>
      </trkpt>
      <trkpt lat="43.57056" lon="1.18069">
        <ele>208</ele>
        <time>2025-09-03T19:51:18Z</time>
      </trkpt>
      <trkpt lat="43.5705" lon="1.18064">
        <ele>208</ele>
        <time>2025-09-03T19:51:20Z</time>
      </trkpt>
      <trkpt lat="43.56937" lon="1.18018">
        <ele>207.3</ele>
        <time>2025-09-03T19:51:47Z</time>
      </trkpt>
      <trkpt lat="43.56481" lon="1.1782">
        <ele>206.2</ele>
        <time>2025-09-03T19:53:39Z</time>
      </trkpt>
      <trkpt lat="43.56275" lon="1.17733">
        <ele>206.4</ele>
        <time>2025-09-03T19:54:29Z</time>
      </trkpt>
      <trkpt lat="43.5627" lon="1.17735">
        <ele>206.6</ele>
        <time>2025-09-03T19:54:30Z</time>
      </trkpt>
      <trkpt lat="43.56264" lon="1.17743">
        <ele>206.9</ele>
        <time>2025-09-03T19:54:32Z</time>
      </trkpt>
      <trkpt lat="43.56242" lon="1.1779">
        <ele>206.5</ele>
        <time>2025-09-03T19:54:42Z</time>
      </trkpt>
      <trkpt lat="43.56043" lon="1.18068">
        <ele>205</ele>
        <time>2025-09-03T19:55:48Z</time>
      </trkpt>
      <trkpt lat="43.56001" lon="1.18089">
        <ele>205</ele>
        <time>2025-09-03T19:55:58Z</time>
      </trkpt>
      <trkpt lat="43.55806" lon="1.18019">
        <ele>204</ele>
        <time>2025-09-03T19:56:45Z</time>
      </trkpt>
      <trkpt lat="43.55724" lon="1.17953">
        <ele>204</ele>
        <time>2025-09-03T19:57:08Z</time>
      </trkpt>
      <trkpt lat="43.55691" lon="1.17806">
        <ele>205</ele>
        <time>2025-09-03T19:57:34Z</time>
      </trkpt>
    </trkseg>
  </trk>
</gpx>